<?xml version='1.0' encoding='UTF-8'?><gpx version="1.1" creator="JPX - https://github.com/jenetics/jpx" xmlns="http://www.topografix.com/GPX/1/1"><trk><trkseg><trkpt lat="44.822075" lon="9.198145"><ele>408.0</ele><time>2026-04-25T16:07:30.29Z</time></trkpt><trkpt lat="44.822075" lon="9.19804"><ele>408.0</ele><time>2026-04-25T16:07:34.29Z</time></trkpt><trkpt lat="44.8221017" lon="9.19794"><ele>408.0</ele><time>2026-04-25T16:07:37.29Z</time></trkpt><trkpt lat="44.8220633" lon="9.1978367"><ele>408.0</ele><time>2026-04-25T16:07:41.29Z</time></trkpt><trkpt lat="44.822" lon="9.1977967"><ele>408.0</ele><time>2026-04-25T16:07:43.29Z</time></trkpt><trkpt lat="44.8219233" lon="9.1977517"><ele>408.0</ele><time>2026-04-25T16:07:46.29Z</time></trkpt><trkpt lat="44.821885" lon="9.19767"><ele>408.0</ele><time>2026-04-25T16:07:49.29Z</time></trkpt><trkpt lat="44.8218933" lon="9.19755"><ele>408.0</ele><time>2026-04-25T16:07:51.29Z</time></trkpt><trkpt lat="44.82191" lon="9.19737"><ele>408.0</ele><time>2026-04-25T16:07:53.29Z</time></trkpt><trkpt lat="44.8219267" lon="9.1972433"><ele>408.0</ele><time>2026-04-25T16:07:54.29Z</time></trkpt><trkpt lat="44.8219517" lon="9.19709"><ele>408.0</ele><time>2026-04-25T16:07:55.29Z</time></trkpt><trkpt lat="44.8219717" lon="9.1969433"><ele>407.79999999999995</ele><time>2026-04-25T16:07:56.29Z</time></trkpt><trkpt lat="44.8219933" lon="9.1968167"><ele>407.6</ele><time>2026-04-25T16:07:57.29Z</time></trkpt><trkpt lat="44.8220083" lon="9.196695"><ele>407.4</ele><time>2026-04-25T16:07:58.29Z</time></trkpt><trkpt lat="44.8220283" lon="9.1965617"><ele>407.20000000000005</ele><time>2026-04-25T16:07:59.29Z</time></trkpt><trkpt lat="44.8220433" lon="9.1964383"><ele>407.0</ele><time>2026-04-25T16:08:00.29Z</time></trkpt><trkpt lat="44.82206" lon="9.19623"><ele>406.8333333333333</ele><time>2026-04-25T16:08:02.29Z</time></trkpt><trkpt lat="44.8220667" lon="9.19614"><ele>406.66666666666663</ele><time>2026-04-25T16:08:03.29Z</time></trkpt><trkpt lat="44.8220717" lon="9.1960183"><ele>406.5</ele><time>2026-04-25T16:08:05.29Z</time></trkpt><trkpt lat="44.8220167" lon="9.195935"><ele>406.33333333333337</ele><time>2026-04-25T16:08:08.29Z</time></trkpt><trkpt lat="44.8219533" lon="9.19593"><ele>406.1666666666667</ele><time>2026-04-25T16:08:09.29Z</time></trkpt><trkpt lat="44.8218733" lon="9.1959133"><ele>406.0</ele><time>2026-04-25T16:08:10.29Z</time></trkpt><trkpt lat="44.8217867" lon="9.1958867"><ele>404.0</ele><time>2026-04-25T16:08:11.29Z</time></trkpt><trkpt lat="44.8215683" lon="9.195805"><ele>402.0</ele><time>2026-04-25T16:08:13.29Z</time></trkpt><trkpt lat="44.8214517" lon="9.1957633"><ele>400.0</ele><time>2026-04-25T16:08:14.289Z</time></trkpt><trkpt lat="44.8213317" lon="9.195725"><ele>400.0</ele><time>2026-04-25T16:08:15.29Z</time></trkpt><trkpt lat="44.8212067" lon="9.1956833"><ele>400.0</ele><time>2026-04-25T16:08:16.29Z</time></trkpt><trkpt lat="44.8210933" lon="9.19564"><ele>400.0</ele><time>2026-04-25T16:08:17.29Z</time></trkpt><trkpt lat="44.8209717" lon="9.1956217"><ele>400.0</ele><time>2026-04-25T16:08:18.29Z</time></trkpt><trkpt lat="44.8208583" lon="9.1955917"><ele>400.2</ele><time>2026-04-25T16:08:19.29Z</time></trkpt><trkpt lat="44.8207533" lon="9.1955533"><ele>400.4</ele><time>2026-04-25T16:08:20.29Z</time></trkpt><trkpt lat="44.8206567" lon="9.195525"><ele>400.6</ele><time>2026-04-25T16:08:21.29Z</time></trkpt><trkpt lat="44.8205667" lon="9.1954767"><ele>400.8</ele><time>2026-04-25T16:08:22.29Z</time></trkpt><trkpt lat="44.8204717" lon="9.195435"><ele>401.0</ele><time>2026-04-25T16:08:23.29Z</time></trkpt><trkpt lat="44.8203833" lon="9.195405"><ele>400.99999999999994</ele><time>2026-04-25T16:08:24.29Z</time></trkpt><trkpt lat="44.8202983" lon="9.1953817"><ele>401.0</ele><time>2026-04-25T16:08:25.29Z</time></trkpt><trkpt lat="44.8202183" lon="9.1953567"><ele>401.0</ele><time>2026-04-25T16:08:26.29Z</time></trkpt><trkpt lat="44.8201483" lon="9.195295"><ele>401.0</ele><time>2026-04-25T16:08:27.29Z</time></trkpt><trkpt lat="44.8200833" lon="9.19523"><ele>400.99999999999994</ele><time>2026-04-25T16:08:28.29Z</time></trkpt><trkpt lat="44.8200333" lon="9.1951367"><ele>401.0</ele><time>2026-04-25T16:08:29.29Z</time></trkpt><trkpt lat="44.8200033" lon="9.19503"><ele>402.5</ele><time>2026-04-25T16:08:30.29Z</time></trkpt><trkpt lat="44.8199917" lon="9.1948967"><ele>404.0</ele><time>2026-04-25T16:08:31.29Z</time></trkpt><trkpt lat="44.8200133" lon="9.19461"><ele>405.5</ele><time>2026-04-25T16:08:33.29Z</time></trkpt><trkpt lat="44.82002" lon="9.19444"><ele>407.0</ele><time>2026-04-25T16:08:34.289Z</time></trkpt><trkpt lat="44.8200217" lon="9.1942517"><ele>407.0</ele><time>2026-04-25T16:08:35.29Z</time></trkpt><trkpt lat="44.8200233" lon="9.1940783"><ele>407.0</ele><time>2026-04-25T16:08:36.29Z</time></trkpt><trkpt lat="44.81999" lon="9.1937717"><ele>407.0</ele><time>2026-04-25T16:08:38.29Z</time></trkpt><trkpt lat="44.8199517" lon="9.1936167"><ele>405.3333333333333</ele><time>2026-04-25T16:08:39.29Z</time></trkpt><trkpt lat="44.8199133" lon="9.1934633"><ele>403.66666666666663</ele><time>2026-04-25T16:08:40.29Z</time></trkpt><trkpt lat="44.81989" lon="9.1933033"><ele>402.0</ele><time>2026-04-25T16:08:41.289Z</time></trkpt><trkpt lat="44.8198333" lon="9.1927533"><ele>401.5</ele><time>2026-04-25T16:08:44.29Z</time></trkpt><trkpt lat="44.819825" lon="9.192555"><ele>401.0</ele><time>2026-04-25T16:08:45.29Z</time></trkpt><trkpt lat="44.8198083" lon="9.1923783"><ele>400.5</ele><time>2026-04-25T16:08:46.29Z</time></trkpt><trkpt lat="44.8197867" lon="9.1922017"><ele>400.0</ele><time>2026-04-25T16:08:47.29Z</time></trkpt><trkpt lat="44.8197583" lon="9.19204"><ele>399.33333333333337</ele><time>2026-04-25T16:08:48.289Z</time></trkpt><trkpt lat="44.8196633" lon="9.1917217"><ele>398.66666666666663</ele><time>2026-04-25T16:08:50.29Z</time></trkpt><trkpt lat="44.8195933" lon="9.1915683"><ele>398.0</ele><time>2026-04-25T16:08:51.29Z</time></trkpt><trkpt lat="44.8195283" lon="9.1914117"><ele>397.0</ele><time>2026-04-25T16:08:52.29Z</time></trkpt><trkpt lat="44.819475" lon="9.19123"><ele>396.0</ele><time>2026-04-25T16:08:53.29Z</time></trkpt><trkpt lat="44.819415" lon="9.190855"><ele>395.0</ele><time>2026-04-25T16:08:55.29Z</time></trkpt><trkpt lat="44.8194033" lon="9.19066"><ele>394.5</ele><time>2026-04-25T16:08:56.29Z</time></trkpt><trkpt lat="44.8193933" lon="9.190465"><ele>394.0</ele><time>2026-04-25T16:08:57.289Z</time></trkpt><trkpt lat="44.819385" lon="9.1902583"><ele>393.5</ele><time>2026-04-25T16:08:58.29Z</time></trkpt><trkpt lat="44.819385" lon="9.1900467"><ele>393.0</ele><time>2026-04-25T16:08:59.29Z</time></trkpt><trkpt lat="44.8193767" lon="9.189835"><ele>392.75</ele><time>2026-04-25T16:09:00.29Z</time></trkpt><trkpt lat="44.819365" lon="9.18963"><ele>392.5</ele><time>2026-04-25T16:09:01.29Z</time></trkpt><trkpt lat="44.819355" lon="9.1894217"><ele>392.25</ele><time>2026-04-25T16:09:02.29Z</time></trkpt><trkpt lat="44.8193417" lon="9.189205"><ele>392.0</ele><time>2026-04-25T16:09:03.29Z</time></trkpt><trkpt lat="44.8193367" lon="9.1889883"><ele>391.25</ele><time>2026-04-25T16:09:04.29Z</time></trkpt><trkpt lat="44.81933" lon="9.1887983"><ele>390.5</ele><time>2026-04-25T16:09:05.29Z</time></trkpt><trkpt lat="44.8193267" lon="9.1885983"><ele>389.75</ele><time>2026-04-25T16:09:06.29Z</time></trkpt><trkpt lat="44.8193217" lon="9.1884083"><ele>389.0</ele><time>2026-04-25T16:09:07.29Z</time></trkpt><trkpt lat="44.8193067" lon="9.1882233"><ele>390.4</ele><time>2026-04-25T16:09:08.29Z</time></trkpt><trkpt lat="44.81929" lon="9.188065"><ele>391.79999999999995</ele><time>2026-04-25T16:09:09.29Z</time></trkpt><trkpt lat="44.81925" lon="9.1879217"><ele>393.20000000000005</ele><time>2026-04-25T16:09:10.29Z</time></trkpt><trkpt lat="44.8191967" lon="9.1877883"><ele>394.6</ele><time>2026-04-25T16:09:11.29Z</time></trkpt><trkpt lat="44.81912" lon="9.1876767"><ele>396.0</ele><time>2026-04-25T16:09:12.29Z</time></trkpt><trkpt lat="44.8190183" lon="9.18759"><ele>396.0</ele><time>2026-04-25T16:09:13.29Z</time></trkpt><trkpt lat="44.8189017" lon="9.187525"><ele>396.0</ele><time>2026-04-25T16:09:14.29Z</time></trkpt><trkpt lat="44.8187783" lon="9.1874783"><ele>396.0</ele><time>2026-04-25T16:09:15.29Z</time></trkpt><trkpt lat="44.8186517" lon="9.1874317"><ele>396.0</ele><time>2026-04-25T16:09:16.29Z</time></trkpt><trkpt lat="44.8183367" lon="9.1873867"><ele>397.20000000000005</ele><time>2026-04-25T16:09:19.29Z</time></trkpt><trkpt lat="44.8182417" lon="9.1874217"><ele>398.40000000000003</ele><time>2026-04-25T16:09:20.29Z</time></trkpt><trkpt lat="44.8181567" lon="9.1874933"><ele>399.6</ele><time>2026-04-25T16:09:21.29Z</time></trkpt><trkpt lat="44.81808" lon="9.187595"><ele>400.8</ele><time>2026-04-25T16:09:22.289Z</time></trkpt><trkpt lat="44.81801" lon="9.1877133"><ele>402.0</ele><time>2026-04-25T16:09:23.29Z</time></trkpt><trkpt lat="44.8179183" lon="9.18783"><ele>402.0</ele><time>2026-04-25T16:09:24.289Z</time></trkpt><trkpt lat="44.817815" lon="9.1879483"><ele>402.0</ele><time>2026-04-25T16:09:25.29Z</time></trkpt><trkpt lat="44.817705" lon="9.188045"><ele>402.0</ele><time>2026-04-25T16:09:26.29Z</time></trkpt><trkpt lat="44.8175733" lon="9.1880917"><ele>402.0</ele><time>2026-04-25T16:09:27.29Z</time></trkpt><trkpt lat="44.8174433" lon="9.188085"><ele>400.75</ele><time>2026-04-25T16:09:28.29Z</time></trkpt><trkpt lat="44.8173133" lon="9.1880517"><ele>399.5</ele><time>2026-04-25T16:09:29.29Z</time></trkpt><trkpt lat="44.8171817" lon="9.1880283"><ele>398.25</ele><time>2026-04-25T16:09:30.29Z</time></trkpt><trkpt lat="44.81706" lon="9.188005"><ele>397.0</ele><time>2026-04-25T16:09:31.29Z</time></trkpt><trkpt lat="44.8169417" lon="9.187995"><ele>397.0</ele><time>2026-04-25T16:09:32.29Z</time></trkpt><trkpt lat="44.8168217" lon="9.1880017"><ele>397.0</ele><time>2026-04-25T16:09:33.29Z</time></trkpt><trkpt lat="44.8167067" lon="9.18805"><ele>397.0</ele><time>2026-04-25T16:09:34.289Z</time></trkpt><trkpt lat="44.8165867" lon="9.188085"><ele>397.0</ele><time>2026-04-25T16:09:35.29Z</time></trkpt><trkpt lat="44.8164667" lon="9.18813"><ele>399.5</ele><time>2026-04-25T16:09:36.29Z</time></trkpt><trkpt lat="44.816355" lon="9.1881767"><ele>402.0</ele><time>2026-04-25T16:09:37.29Z</time></trkpt><trkpt lat="44.8161383" lon="9.1882517"><ele>404.5</ele><time>2026-04-25T16:09:39.29Z</time></trkpt><trkpt lat="44.8160333" lon="9.1882567"><ele>407.0</ele><time>2026-04-25T16:09:40.29Z</time></trkpt><trkpt lat="44.81592" lon="9.1882483"><ele>407.0</ele><time>2026-04-25T16:09:41.29Z</time></trkpt><trkpt lat="44.8158" lon="9.18825"><ele>407.0</ele><time>2026-04-25T16:09:42.29Z</time></trkpt><trkpt lat="44.815675" lon="9.1882733"><ele>407.0</ele><time>2026-04-25T16:09:43.29Z</time></trkpt><trkpt lat="44.8155533" lon="9.18832"><ele>407.0</ele><time>2026-04-25T16:09:44.29Z</time></trkpt><trkpt lat="44.8154317" lon="9.1883933"><ele>407.0</ele><time>2026-04-25T16:09:45.289Z</time></trkpt><trkpt lat="44.8153083" lon="9.1884733"><ele>407.0</ele><time>2026-04-25T16:09:46.29Z</time></trkpt><trkpt lat="44.8151967" lon="9.188575"><ele>407.0</ele><time>2026-04-25T16:09:47.29Z</time></trkpt><trkpt lat="44.81508" lon="9.188675"><ele>407.0</ele><time>2026-04-25T16:09:48.29Z</time></trkpt><trkpt lat="44.81497" lon="9.18878"><ele>409.75</ele><time>2026-04-25T16:09:49.29Z</time></trkpt><trkpt lat="44.8148667" lon="9.188915"><ele>412.5</ele><time>2026-04-25T16:09:50.29Z</time></trkpt><trkpt lat="44.8147617" lon="9.1890433"><ele>415.25</ele><time>2026-04-25T16:09:51.29Z</time></trkpt><trkpt lat="44.8146583" lon="9.1891667"><ele>418.0</ele><time>2026-04-25T16:09:52.29Z</time></trkpt><trkpt lat="44.8145633" lon="9.1892883"><ele>418.33333333333337</ele><time>2026-04-25T16:09:53.29Z</time></trkpt><trkpt lat="44.8144667" lon="9.1894067"><ele>418.66666666666663</ele><time>2026-04-25T16:09:54.29Z</time></trkpt><trkpt lat="44.8142333" lon="9.1895733"><ele>419.0</ele><time>2026-04-25T16:09:56.29Z</time></trkpt><trkpt lat="44.814115" lon="9.1896433"><ele>419.25</ele><time>2026-04-25T16:09:57.29Z</time></trkpt><trkpt lat="44.8140017" lon="9.1897167"><ele>419.5</ele><time>2026-04-25T16:09:58.29Z</time></trkpt><trkpt lat="44.8138833" lon="9.1897817"><ele>419.75</ele><time>2026-04-25T16:09:59.29Z</time></trkpt><trkpt lat="44.8137633" lon="9.18982"><ele>420.0</ele><time>2026-04-25T16:10:00.29Z</time></trkpt><trkpt lat="44.8136317" lon="9.189855"><ele>420.0</ele><time>2026-04-25T16:10:01.289Z</time></trkpt><trkpt lat="44.8134883" lon="9.1898883"><ele>420.0</ele><time>2026-04-25T16:10:02.29Z</time></trkpt><trkpt lat="44.8133483" lon="9.1899133"><ele>420.0</ele><time>2026-04-25T16:10:03.29Z</time></trkpt><trkpt lat="44.8130917" lon="9.18991"><ele>420.0</ele><time>2026-04-25T16:10:05.29Z</time></trkpt><trkpt lat="44.8129867" lon="9.189875"><ele>420.0</ele><time>2026-04-25T16:10:06.29Z</time></trkpt><trkpt lat="44.8127817" lon="9.1897217"><ele>420.0</ele><time>2026-04-25T16:10:08.29Z</time></trkpt><trkpt lat="44.812675" lon="9.1896283"><ele>420.75</ele><time>2026-04-25T16:10:09.29Z</time></trkpt><trkpt lat="44.8125633" lon="9.189535"><ele>421.5</ele><time>2026-04-25T16:10:10.29Z</time></trkpt><trkpt lat="44.81245" lon="9.1894433"><ele>422.25</ele><time>2026-04-25T16:10:11.29Z</time></trkpt><trkpt lat="44.81233" lon="9.1893633"><ele>423.0</ele><time>2026-04-25T16:10:12.29Z</time></trkpt><trkpt lat="44.8122033" lon="9.1892717"><ele>423.0</ele><time>2026-04-25T16:10:13.29Z</time></trkpt><trkpt lat="44.81207" lon="9.1891783"><ele>423.0</ele><time>2026-04-25T16:10:14.29Z</time></trkpt><trkpt lat="44.8119333" lon="9.1890817"><ele>423.0</ele><time>2026-04-25T16:10:15.29Z</time></trkpt><trkpt lat="44.8118017" lon="9.1889833"><ele>426.5</ele><time>2026-04-25T16:10:16.29Z</time></trkpt><trkpt lat="44.8116683" lon="9.1889"><ele>430.0</ele><time>2026-04-25T16:10:17.29Z</time></trkpt><trkpt lat="44.8115417" lon="9.1887983"><ele>433.5</ele><time>2026-04-25T16:10:18.29Z</time></trkpt><trkpt lat="44.8114133" lon="9.1887033"><ele>437.0</ele><time>2026-04-25T16:10:19.29Z</time></trkpt><trkpt lat="44.8110317" lon="9.1885567"><ele>435.5</ele><time>2026-04-25T16:10:22.29Z</time></trkpt><trkpt lat="44.8109" lon="9.188575"><ele>434.0</ele><time>2026-04-25T16:10:23.29Z</time></trkpt><trkpt lat="44.8107633" lon="9.1885983"><ele>432.5</ele><time>2026-04-25T16:10:24.29Z</time></trkpt><trkpt lat="44.8106283" lon="9.1886033"><ele>431.0</ele><time>2026-04-25T16:10:25.29Z</time></trkpt><trkpt lat="44.810355" lon="9.1885817"><ele>431.0</ele><time>2026-04-25T16:10:27.289Z</time></trkpt><trkpt lat="44.8102167" lon="9.1885767"><ele>431.0</ele><time>2026-04-25T16:10:28.29Z</time></trkpt><trkpt lat="44.8100883" lon="9.1885483"><ele>431.0</ele><time>2026-04-25T16:10:29.29Z</time></trkpt><trkpt lat="44.80996" lon="9.1885"><ele>431.0</ele><time>2026-04-25T16:10:30.29Z</time></trkpt><trkpt lat="44.8098433" lon="9.1884167"><ele>430.5</ele><time>2026-04-25T16:10:31.29Z</time></trkpt><trkpt lat="44.8097317" lon="9.1882983"><ele>430.0</ele><time>2026-04-25T16:10:32.29Z</time></trkpt><trkpt lat="44.809635" lon="9.188155"><ele>429.5</ele><time>2026-04-25T16:10:33.29Z</time></trkpt><trkpt lat="44.8095417" lon="9.1880083"><ele>429.0</ele><time>2026-04-25T16:10:34.289Z</time></trkpt><trkpt lat="44.8094583" lon="9.1878683"><ele>431.5</ele><time>2026-04-25T16:10:35.29Z</time></trkpt><trkpt lat="44.809375" lon="9.1877417"><ele>434.0</ele><time>2026-04-25T16:10:36.29Z</time></trkpt><trkpt lat="44.8092883" lon="9.1876233"><ele>436.5</ele><time>2026-04-25T16:10:37.29Z</time></trkpt><trkpt lat="44.809205" lon="9.18751"><ele>439.0</ele><time>2026-04-25T16:10:38.29Z</time></trkpt><trkpt lat="44.809115" lon="9.18741"><ele>441.0</ele><time>2026-04-25T16:10:39.29Z</time></trkpt><trkpt lat="44.8090233" lon="9.1873283"><ele>443.0</ele><time>2026-04-25T16:10:40.29Z</time></trkpt><trkpt lat="44.8089267" lon="9.1872517"><ele>445.0</ele><time>2026-04-25T16:10:41.29Z</time></trkpt><trkpt lat="44.808825" lon="9.18719"><ele>447.0</ele><time>2026-04-25T16:10:42.29Z</time></trkpt><trkpt lat="44.80872" lon="9.1871433"><ele>449.0</ele><time>2026-04-25T16:10:43.289Z</time></trkpt><trkpt lat="44.80861" lon="9.1870883"><ele>449.0</ele><time>2026-04-25T16:10:44.289Z</time></trkpt><trkpt lat="44.8085017" lon="9.1870233"><ele>449.0</ele><time>2026-04-25T16:10:45.289Z</time></trkpt><trkpt lat="44.8083933" lon="9.186955"><ele>449.0</ele><time>2026-04-25T16:10:46.29Z</time></trkpt><trkpt lat="44.808285" lon="9.1868867"><ele>449.0</ele><time>2026-04-25T16:10:47.29Z</time></trkpt><trkpt lat="44.8081833" lon="9.1868117"><ele>448.0</ele><time>2026-04-25T16:10:48.29Z</time></trkpt><trkpt lat="44.8080833" lon="9.18675"><ele>447.0</ele><time>2026-04-25T16:10:49.29Z</time></trkpt><trkpt lat="44.8079817" lon="9.1866717"><ele>446.0</ele><time>2026-04-25T16:10:50.29Z</time></trkpt><trkpt lat="44.80789" lon="9.186585"><ele>445.0</ele><time>2026-04-25T16:10:51.29Z</time></trkpt><trkpt lat="44.807805" lon="9.1865033"><ele>444.0</ele><time>2026-04-25T16:10:52.289Z</time></trkpt><trkpt lat="44.807715" lon="9.1864083"><ele>444.75</ele><time>2026-04-25T16:10:53.29Z</time></trkpt><trkpt lat="44.8076183" lon="9.18632"><ele>445.5</ele><time>2026-04-25T16:10:54.29Z</time></trkpt><trkpt lat="44.8075183" lon="9.18623"><ele>446.25</ele><time>2026-04-25T16:10:55.29Z</time></trkpt><trkpt lat="44.8074283" lon="9.1861333"><ele>447.0</ele><time>2026-04-25T16:10:56.29Z</time></trkpt><trkpt lat="44.8073367" lon="9.186045"><ele>447.0</ele><time>2026-04-25T16:10:57.29Z</time></trkpt><trkpt lat="44.8072467" lon="9.1859617"><ele>447.00000000000006</ele><time>2026-04-25T16:10:58.29Z</time></trkpt><trkpt lat="44.80716" lon="9.1858817"><ele>447.00000000000006</ele><time>2026-04-25T16:10:59.29Z</time></trkpt><trkpt lat="44.8070817" lon="9.185805"><ele>447.0</ele><time>2026-04-25T16:11:00.29Z</time></trkpt><trkpt lat="44.807005" lon="9.185735"><ele>447.0</ele><time>2026-04-25T16:11:01.29Z</time></trkpt><trkpt lat="44.8069217" lon="9.18566"><ele>449.0</ele><time>2026-04-25T16:11:02.29Z</time></trkpt><trkpt lat="44.8068383" lon="9.1855783"><ele>451.0</ele><time>2026-04-25T16:11:03.29Z</time></trkpt><trkpt lat="44.806745" lon="9.1854883"><ele>453.0</ele><time>2026-04-25T16:11:04.29Z</time></trkpt><trkpt lat="44.8066417" lon="9.1853967"><ele>455.0</ele><time>2026-04-25T16:11:05.29Z</time></trkpt><trkpt lat="44.806535" lon="9.1852883"><ele>455.0</ele><time>2026-04-25T16:11:06.29Z</time></trkpt><trkpt lat="44.806435" lon="9.1851767"><ele>455.0</ele><time>2026-04-25T16:11:07.29Z</time></trkpt><trkpt lat="44.8063333" lon="9.1850883"><ele>455.0</ele><time>2026-04-25T16:11:08.29Z</time></trkpt><trkpt lat="44.80623" lon="9.1850083"><ele>455.0</ele><time>2026-04-25T16:11:09.29Z</time></trkpt><trkpt lat="44.80597" lon="9.1849367"><ele>455.75</ele><time>2026-04-25T16:11:11.289Z</time></trkpt><trkpt lat="44.8058383" lon="9.184955"><ele>456.5</ele><time>2026-04-25T16:11:12.289Z</time></trkpt><trkpt lat="44.8057017" lon="9.184985"><ele>457.25</ele><time>2026-04-25T16:11:13.289Z</time></trkpt><trkpt lat="44.8055683" lon="9.1850283"><ele>458.0</ele><time>2026-04-25T16:11:14.289Z</time></trkpt><trkpt lat="44.8054467" lon="9.1851017"><ele>458.0</ele><time>2026-04-25T16:11:15.289Z</time></trkpt><trkpt lat="44.805325" lon="9.18518"><ele>458.0</ele><time>2026-04-25T16:11:16.288Z</time></trkpt><trkpt lat="44.8052083" lon="9.185265"><ele>458.0</ele><time>2026-04-25T16:11:17.288Z</time></trkpt><trkpt lat="44.805085" lon="9.1853167"><ele>458.0</ele><time>2026-04-25T16:11:18.289Z</time></trkpt><trkpt lat="44.8049483" lon="9.1853267"><ele>460.0</ele><time>2026-04-25T16:11:19.289Z</time></trkpt><trkpt lat="44.8048" lon="9.1853117"><ele>462.0</ele><time>2026-04-25T16:11:20.289Z</time></trkpt><trkpt lat="44.8046583" lon="9.18528"><ele>464.0</ele><time>2026-04-25T16:11:21.289Z</time></trkpt><trkpt lat="44.8045183" lon="9.1852333"><ele>466.0</ele><time>2026-04-25T16:11:22.289Z</time></trkpt><trkpt lat="44.8043767" lon="9.1851883"><ele>465.75</ele><time>2026-04-25T16:11:23.289Z</time></trkpt><trkpt lat="44.8042333" lon="9.1851417"><ele>465.5</ele><time>2026-04-25T16:11:24.289Z</time></trkpt><trkpt lat="44.80409" lon="9.1851"><ele>465.25</ele><time>2026-04-25T16:11:25.289Z</time></trkpt><trkpt lat="44.8039517" lon="9.185065"><ele>465.0</ele><time>2026-04-25T16:11:26.289Z</time></trkpt><trkpt lat="44.80382" lon="9.1850133"><ele>465.0</ele><time>2026-04-25T16:11:27.289Z</time></trkpt><trkpt lat="44.8036883" lon="9.18495"><ele>465.0</ele><time>2026-04-25T16:11:28.289Z</time></trkpt><trkpt lat="44.8035733" lon="9.1848783"><ele>465.0</ele><time>2026-04-25T16:11:29.289Z</time></trkpt><trkpt lat="44.8034517" lon="9.184805"><ele>465.0</ele><time>2026-04-25T16:11:30.289Z</time></trkpt><trkpt lat="44.803325" lon="9.184745"><ele>471.5</ele><time>2026-04-25T16:11:31.289Z</time></trkpt><trkpt lat="44.80319" lon="9.1847167"><ele>478.0</ele><time>2026-04-25T16:11:32.289Z</time></trkpt><trkpt lat="44.8030617" lon="9.1846983"><ele>484.5</ele><time>2026-04-25T16:11:33.289Z</time></trkpt><trkpt lat="44.802935" lon="9.1847433"><ele>491.0</ele><time>2026-04-25T16:11:34.289Z</time></trkpt><trkpt lat="44.8028117" lon="9.18478"><ele>491.0</ele><time>2026-04-25T16:11:35.289Z</time></trkpt><trkpt lat="44.8026983" lon="9.1848183"><ele>491.0</ele><time>2026-04-25T16:11:36.289Z</time></trkpt><trkpt lat="44.80258" lon="9.1848283"><ele>491.0</ele><time>2026-04-25T16:11:37.289Z</time></trkpt><trkpt lat="44.8024717" lon="9.1848"><ele>491.0</ele><time>2026-04-25T16:11:38.289Z</time></trkpt><trkpt lat="44.8023633" lon="9.1847367"><ele>490.25</ele><time>2026-04-25T16:11:39.288Z</time></trkpt><trkpt lat="44.8022483" lon="9.184675"><ele>489.5</ele><time>2026-04-25T16:11:40.289Z</time></trkpt><trkpt lat="44.8021267" lon="9.184655"><ele>488.75</ele><time>2026-04-25T16:11:41.289Z</time></trkpt><trkpt lat="44.8020017" lon="9.1846533"><ele>488.0</ele><time>2026-04-25T16:11:42.289Z</time></trkpt><trkpt lat="44.8018667" lon="9.1846883"><ele>485.75</ele><time>2026-04-25T16:11:43.288Z</time></trkpt><trkpt lat="44.801725" lon="9.1847483"><ele>483.5</ele><time>2026-04-25T16:11:44.289Z</time></trkpt><trkpt lat="44.8015833" lon="9.1848183"><ele>481.25</ele><time>2026-04-25T16:11:45.289Z</time></trkpt><trkpt lat="44.80145" lon="9.1848817"><ele>479.0</ele><time>2026-04-25T16:11:46.289Z</time></trkpt><trkpt lat="44.80132" lon="9.1849217"><ele>475.75</ele><time>2026-04-25T16:11:47.289Z</time></trkpt><trkpt lat="44.8012" lon="9.1849583"><ele>472.5</ele><time>2026-04-25T16:11:48.289Z</time></trkpt><trkpt lat="44.8010633" lon="9.184965"><ele>469.25</ele><time>2026-04-25T16:11:49.289Z</time></trkpt><trkpt lat="44.8009367" lon="9.1849217"><ele>466.0</ele><time>2026-04-25T16:11:50.289Z</time></trkpt><trkpt lat="44.8008117" lon="9.1848533"><ele>467.5</ele><time>2026-04-25T16:11:51.289Z</time></trkpt><trkpt lat="44.8007083" lon="9.1847633"><ele>469.0</ele><time>2026-04-25T16:11:52.289Z</time></trkpt><trkpt lat="44.800615" lon="9.1846567"><ele>470.5</ele><time>2026-04-25T16:11:53.288Z</time></trkpt><trkpt lat="44.80054" lon="9.1845383"><ele>472.0</ele><time>2026-04-25T16:11:54.288Z</time></trkpt><trkpt lat="44.8005017" lon="9.1844"><ele>472.0</ele><time>2026-04-25T16:11:55.289Z</time></trkpt><trkpt lat="44.8004983" lon="9.1842517"><ele>472.00000000000006</ele><time>2026-04-25T16:11:56.288Z</time></trkpt><trkpt lat="44.80051" lon="9.1841067"><ele>472.00000000000006</ele><time>2026-04-25T16:11:57.289Z</time></trkpt><trkpt lat="44.8005267" lon="9.1839567"><ele>472.0</ele><time>2026-04-25T16:11:58.289Z</time></trkpt><trkpt lat="44.8005233" lon="9.18379"><ele>472.0</ele><time>2026-04-25T16:11:59.289Z</time></trkpt><trkpt lat="44.8004983" lon="9.1836433"><ele>474.0</ele><time>2026-04-25T16:12:00.289Z</time></trkpt><trkpt lat="44.8004483" lon="9.1834983"><ele>476.0</ele><time>2026-04-25T16:12:01.289Z</time></trkpt><trkpt lat="44.8003817" lon="9.183355"><ele>478.0</ele><time>2026-04-25T16:12:02.289Z</time></trkpt><trkpt lat="44.800295" lon="9.183215"><ele>480.0</ele><time>2026-04-25T16:12:03.289Z</time></trkpt><trkpt lat="44.8002033" lon="9.1830767"><ele>479.25</ele><time>2026-04-25T16:12:04.289Z</time></trkpt><trkpt lat="44.8001083" lon="9.1829417"><ele>478.5</ele><time>2026-04-25T16:12:05.289Z</time></trkpt><trkpt lat="44.8000067" lon="9.1827983"><ele>477.75</ele><time>2026-04-25T16:12:06.289Z</time></trkpt><trkpt lat="44.7999083" lon="9.18265"><ele>477.0</ele><time>2026-04-25T16:12:07.289Z</time></trkpt><trkpt lat="44.79981" lon="9.1825033"><ele>477.0</ele><time>2026-04-25T16:12:08.289Z</time></trkpt><trkpt lat="44.7997167" lon="9.1823583"><ele>477.0</ele><time>2026-04-25T16:12:09.288Z</time></trkpt><trkpt lat="44.799625" lon="9.1822083"><ele>477.0</ele><time>2026-04-25T16:12:10.288Z</time></trkpt><trkpt lat="44.7995367" lon="9.18207"><ele>477.0</ele><time>2026-04-25T16:12:11.289Z</time></trkpt><trkpt lat="44.7994383" lon="9.1819283"><ele>477.0</ele><time>2026-04-25T16:12:12.289Z</time></trkpt><trkpt lat="44.7993417" lon="9.1817867"><ele>477.0</ele><time>2026-04-25T16:12:13.289Z</time></trkpt><trkpt lat="44.7992417" lon="9.18165"><ele>477.0</ele><time>2026-04-25T16:12:14.289Z</time></trkpt><trkpt lat="44.79914" lon="9.181495"><ele>477.0</ele><time>2026-04-25T16:12:15.289Z</time></trkpt><trkpt lat="44.7990433" lon="9.1813467"><ele>479.25</ele><time>2026-04-25T16:12:16.289Z</time></trkpt><trkpt lat="44.7989483" lon="9.1812"><ele>481.5</ele><time>2026-04-25T16:12:17.289Z</time></trkpt><trkpt lat="44.79886" lon="9.1810383"><ele>483.75</ele><time>2026-04-25T16:12:18.289Z</time></trkpt><trkpt lat="44.798785" lon="9.1808867"><ele>486.0</ele><time>2026-04-25T16:12:19.288Z</time></trkpt><trkpt lat="44.7987267" lon="9.1807467"><ele>488.6</ele><time>2026-04-25T16:12:20.289Z</time></trkpt><trkpt lat="44.798685" lon="9.1806067"><ele>491.20000000000005</ele><time>2026-04-25T16:12:21.289Z</time></trkpt><trkpt lat="44.7986683" lon="9.180475"><ele>493.79999999999995</ele><time>2026-04-25T16:12:22.289Z</time></trkpt><trkpt lat="44.7986717" lon="9.1803467"><ele>496.4</ele><time>2026-04-25T16:12:23.289Z</time></trkpt><trkpt lat="44.7987" lon="9.18022"><ele>499.0</ele><time>2026-04-25T16:12:24.289Z</time></trkpt><trkpt lat="44.7987417" lon="9.1800933"><ele>499.0</ele><time>2026-04-25T16:12:25.289Z</time></trkpt><trkpt lat="44.7987783" lon="9.1799617"><ele>499.0</ele><time>2026-04-25T16:12:26.288Z</time></trkpt><trkpt lat="44.7988083" lon="9.1798283"><ele>499.0</ele><time>2026-04-25T16:12:27.288Z</time></trkpt><trkpt lat="44.7988417" lon="9.1796983"><ele>499.0</ele><time>2026-04-25T16:12:28.288Z</time></trkpt><trkpt lat="44.798865" lon="9.17958"><ele>499.0</ele><time>2026-04-25T16:12:29.288Z</time></trkpt><trkpt lat="44.7988917" lon="9.1794717"><ele>499.83333333333337</ele><time>2026-04-25T16:12:30.289Z</time></trkpt><trkpt lat="44.7989017" lon="9.1793667"><ele>500.6666666666667</ele><time>2026-04-25T16:12:31.289Z</time></trkpt><trkpt lat="44.7988817" lon="9.1792567"><ele>501.5</ele><time>2026-04-25T16:12:32.289Z</time></trkpt><trkpt lat="44.798835" lon="9.179175"><ele>502.33333333333337</ele><time>2026-04-25T16:12:33.289Z</time></trkpt><trkpt lat="44.7987533" lon="9.1791167"><ele>503.1666666666667</ele><time>2026-04-25T16:12:34.289Z</time></trkpt><trkpt lat="44.798665" lon="9.1790933"><ele>504.0</ele><time>2026-04-25T16:12:35.289Z</time></trkpt><trkpt lat="44.798585" lon="9.1791"><ele>504.0</ele><time>2026-04-25T16:12:36.289Z</time></trkpt><trkpt lat="44.7985033" lon="9.1791583"><ele>504.0</ele><time>2026-04-25T16:12:37.289Z</time></trkpt><trkpt lat="44.79842" lon="9.17925"><ele>504.0</ele><time>2026-04-25T16:12:38.289Z</time></trkpt><trkpt lat="44.798325" lon="9.17932"><ele>504.0</ele><time>2026-04-25T16:12:39.288Z</time></trkpt><trkpt lat="44.7982183" lon="9.17934"><ele>504.0</ele><time>2026-04-25T16:12:40.289Z</time></trkpt><trkpt lat="44.7981133" lon="9.1793333"><ele>502.2</ele><time>2026-04-25T16:12:41.289Z</time></trkpt><trkpt lat="44.7980117" lon="9.179305"><ele>500.4</ele><time>2026-04-25T16:12:42.289Z</time></trkpt><trkpt lat="44.7979183" lon="9.1792567"><ele>498.6</ele><time>2026-04-25T16:12:43.289Z</time></trkpt><trkpt lat="44.7978383" lon="9.1791833"><ele>496.8</ele><time>2026-04-25T16:12:44.289Z</time></trkpt><trkpt lat="44.7977767" lon="9.1790883"><ele>495.0</ele><time>2026-04-25T16:12:45.289Z</time></trkpt><trkpt lat="44.797705" lon="9.17898"><ele>497.0</ele><time>2026-04-25T16:12:46.289Z</time></trkpt><trkpt lat="44.797635" lon="9.1788733"><ele>499.0</ele><time>2026-04-25T16:12:47.289Z</time></trkpt><trkpt lat="44.7975817" lon="9.17877"><ele>501.0</ele><time>2026-04-25T16:12:48.289Z</time></trkpt><trkpt lat="44.797505" lon="9.178665"><ele>503.0</ele><time>2026-04-25T16:12:49.289Z</time></trkpt><trkpt lat="44.7974667" lon="9.17857"><ele>505.0</ele><time>2026-04-25T16:12:50.289Z</time></trkpt><trkpt lat="44.7974417" lon="9.1784717"><ele>505.0</ele><time>2026-04-25T16:12:51.289Z</time></trkpt><trkpt lat="44.797435" lon="9.1783633"><ele>505.0</ele><time>2026-04-25T16:12:52.289Z</time></trkpt><trkpt lat="44.7974483" lon="9.1782017"><ele>505.0</ele><time>2026-04-25T16:12:53.289Z</time></trkpt><trkpt lat="44.7974467" lon="9.1780367"><ele>505.0</ele><time>2026-04-25T16:12:54.289Z</time></trkpt><trkpt lat="44.7974483" lon="9.1778717"><ele>505.0</ele><time>2026-04-25T16:12:55.289Z</time></trkpt><trkpt lat="44.7974483" lon="9.17772"><ele>505.75</ele><time>2026-04-25T16:12:56.289Z</time></trkpt><trkpt lat="44.7974433" lon="9.17756"><ele>506.5</ele><time>2026-04-25T16:12:57.289Z</time></trkpt><trkpt lat="44.7974367" lon="9.1773917"><ele>507.25</ele><time>2026-04-25T16:12:58.289Z</time></trkpt><trkpt lat="44.7974217" lon="9.1772183"><ele>508.0</ele><time>2026-04-25T16:12:59.289Z</time></trkpt><trkpt lat="44.79742" lon="9.17705"><ele>508.59999999999997</ele><time>2026-04-25T16:13:00.289Z</time></trkpt><trkpt lat="44.7974183" lon="9.1768917"><ele>509.19999999999993</ele><time>2026-04-25T16:13:01.289Z</time></trkpt><trkpt lat="44.7974233" lon="9.1767383"><ele>509.8</ele><time>2026-04-25T16:13:02.289Z</time></trkpt><trkpt lat="44.797435" lon="9.176595"><ele>510.4</ele><time>2026-04-25T16:13:03.289Z</time></trkpt><trkpt lat="44.7974667" lon="9.1764433"><ele>511.0</ele><time>2026-04-25T16:13:04.289Z</time></trkpt><trkpt lat="44.7975317" lon="9.1763133"><ele>512.0</ele><time>2026-04-25T16:13:05.288Z</time></trkpt><trkpt lat="44.7976183" lon="9.176195"><ele>513.0</ele><time>2026-04-25T16:13:06.289Z</time></trkpt><trkpt lat="44.7977167" lon="9.1760817"><ele>514.0</ele><time>2026-04-25T16:13:07.289Z</time></trkpt><trkpt lat="44.79782" lon="9.1759617"><ele>515.0</ele><time>2026-04-25T16:13:08.289Z</time></trkpt><trkpt lat="44.7979283" lon="9.1758417"><ele>518.0</ele><time>2026-04-25T16:13:09.289Z</time></trkpt><trkpt lat="44.7980333" lon="9.175715"><ele>521.0</ele><time>2026-04-25T16:13:10.289Z</time></trkpt><trkpt lat="44.798135" lon="9.1755917"><ele>524.0</ele><time>2026-04-25T16:13:11.289Z</time></trkpt><trkpt lat="44.7982367" lon="9.1754783"><ele>527.0</ele><time>2026-04-25T16:13:12.289Z</time></trkpt><trkpt lat="44.798335" lon="9.1753717"><ele>527.0</ele><time>2026-04-25T16:13:13.289Z</time></trkpt><trkpt lat="44.7984433" lon="9.1752633"><ele>527.0</ele><time>2026-04-25T16:13:14.289Z</time></trkpt><trkpt lat="44.7985333" lon="9.1751333"><ele>527.0</ele><time>2026-04-25T16:13:15.288Z</time></trkpt><trkpt lat="44.7986183" lon="9.174995"><ele>527.0</ele><time>2026-04-25T16:13:16.289Z</time></trkpt><trkpt lat="44.798675" lon="9.174865"><ele>529.6</ele><time>2026-04-25T16:13:17.289Z</time></trkpt><trkpt lat="44.7987367" lon="9.174735"><ele>532.2</ele><time>2026-04-25T16:13:18.289Z</time></trkpt><trkpt lat="44.798785" lon="9.1745917"><ele>534.8</ele><time>2026-04-25T16:13:19.289Z</time></trkpt><trkpt lat="44.7988183" lon="9.1744633"><ele>537.4</ele><time>2026-04-25T16:13:20.289Z</time></trkpt><trkpt lat="44.7988467" lon="9.174335"><ele>540.0</ele><time>2026-04-25T16:13:21.289Z</time></trkpt><trkpt lat="44.79893" lon="9.1742117"><ele>540.0</ele><time>2026-04-25T16:13:23.289Z</time></trkpt><trkpt lat="44.7989883" lon="9.1741683"><ele>540.0</ele><time>2026-04-25T16:13:24.289Z</time></trkpt><trkpt lat="44.7990467" lon="9.1741133"><ele>540.0</ele><time>2026-04-25T16:13:25.289Z</time></trkpt><trkpt lat="44.7991033" lon="9.1740333"><ele>540.0</ele><time>2026-04-25T16:13:26.289Z</time></trkpt><trkpt lat="44.7991767" lon="9.17394"><ele>540.0</ele><time>2026-04-25T16:13:28.289Z</time></trkpt><trkpt lat="44.79924" lon="9.173955"><ele>540.0</ele><time>2026-04-25T16:13:30.289Z</time></trkpt><trkpt lat="44.7992967" lon="9.1740167"><ele>543.6666666666666</ele><time>2026-04-25T16:13:32.288Z</time></trkpt><trkpt lat="44.7993633" lon="9.17415"><ele>547.3333333333334</ele><time>2026-04-25T16:13:34.289Z</time></trkpt><trkpt lat="44.7994033" lon="9.1742317"><ele>551.0</ele><time>2026-04-25T16:13:35.289Z</time></trkpt><trkpt lat="44.7994467" lon="9.174325"><ele>554.6666666666667</ele><time>2026-04-25T16:13:36.289Z</time></trkpt><trkpt lat="44.7995083" lon="9.1744233"><ele>558.3333333333334</ele><time>2026-04-25T16:13:37.289Z</time></trkpt><trkpt lat="44.7995567" lon="9.1745267"><ele>562.0</ele><time>2026-04-25T16:13:38.289Z</time></trkpt><trkpt lat="44.7996283" lon="9.1746317"><ele>562.0</ele><time>2026-04-25T16:13:39.289Z</time></trkpt><trkpt lat="44.7997217" lon="9.17471"><ele>562.0</ele><time>2026-04-25T16:13:40.289Z</time></trkpt><trkpt lat="44.799835" lon="9.1747733"><ele>562.0</ele><time>2026-04-25T16:13:41.289Z</time></trkpt><trkpt lat="44.7999483" lon="9.1748383"><ele>562.0</ele><time>2026-04-25T16:13:42.289Z</time></trkpt><trkpt lat="44.80005" lon="9.1749067"><ele>560.1666666666667</ele><time>2026-04-25T16:13:43.289Z</time></trkpt><trkpt lat="44.800125" lon="9.1749817"><ele>558.3333333333334</ele><time>2026-04-25T16:13:44.289Z</time></trkpt><trkpt lat="44.80019" lon="9.17504"><ele>556.5</ele><time>2026-04-25T16:13:45.289Z</time></trkpt><trkpt lat="44.8002517" lon="9.1750617"><ele>554.6666666666666</ele><time>2026-04-25T16:13:46.289Z</time></trkpt><trkpt lat="44.8003167" lon="9.1750483"><ele>552.8333333333333</ele><time>2026-04-25T16:13:47.289Z</time></trkpt><trkpt lat="44.800385" lon="9.1750067"><ele>551.0</ele><time>2026-04-25T16:13:48.289Z</time></trkpt><trkpt lat="44.800475" lon="9.1749267"><ele>550.4</ele><time>2026-04-25T16:13:49.289Z</time></trkpt><trkpt lat="44.8005467" lon="9.174855"><ele>549.8</ele><time>2026-04-25T16:13:50.289Z</time></trkpt><trkpt lat="44.80062" lon="9.174785"><ele>549.1999999999999</ele><time>2026-04-25T16:13:51.289Z</time></trkpt><trkpt lat="44.8006867" lon="9.1746967"><ele>548.6</ele><time>2026-04-25T16:13:52.289Z</time></trkpt><trkpt lat="44.80074" lon="9.174585"><ele>548.0</ele><time>2026-04-25T16:13:53.289Z</time></trkpt><trkpt lat="44.8007983" lon="9.174465"><ele>550.0</ele><time>2026-04-25T16:13:54.289Z</time></trkpt><trkpt lat="44.8008717" lon="9.174345"><ele>552.0</ele><time>2026-04-25T16:13:55.289Z</time></trkpt><trkpt lat="44.8009433" lon="9.1742367"><ele>554.0</ele><time>2026-04-25T16:13:56.289Z</time></trkpt><trkpt lat="44.8010167" lon="9.1741267"><ele>556.0</ele><time>2026-04-25T16:13:57.289Z</time></trkpt><trkpt lat="44.8011017" lon="9.17402"><ele>558.0</ele><time>2026-04-25T16:13:58.289Z</time></trkpt><trkpt lat="44.8011917" lon="9.1739233"><ele>565.0</ele><time>2026-04-25T16:13:59.289Z</time></trkpt><trkpt lat="44.80129" lon="9.1738583"><ele>572.0</ele><time>2026-04-25T16:14:00.289Z</time></trkpt><trkpt lat="44.80139" lon="9.1737817"><ele>579.0</ele><time>2026-04-25T16:14:01.289Z</time></trkpt><trkpt lat="44.80149" lon="9.1737067"><ele>586.0</ele><time>2026-04-25T16:14:02.289Z</time></trkpt><trkpt lat="44.8015983" lon="9.1736433"><ele>586.0</ele><time>2026-04-25T16:14:03.289Z</time></trkpt><trkpt lat="44.8017" lon="9.17361"><ele>586.0</ele><time>2026-04-25T16:14:04.289Z</time></trkpt><trkpt lat="44.8017867" lon="9.1735867"><ele>586.0</ele><time>2026-04-25T16:14:05.289Z</time></trkpt><trkpt lat="44.80186" lon="9.1735383"><ele>586.0</ele><time>2026-04-25T16:14:06.289Z</time></trkpt><trkpt lat="44.8019317" lon="9.17347"><ele>586.0</ele><time>2026-04-25T16:14:07.289Z</time></trkpt><trkpt lat="44.8020033" lon="9.1733767"><ele>588.2</ele><time>2026-04-25T16:14:08.289Z</time></trkpt><trkpt lat="44.802075" lon="9.1732667"><ele>590.4000000000001</ele><time>2026-04-25T16:14:09.289Z</time></trkpt><trkpt lat="44.802145" lon="9.173145"><ele>592.6</ele><time>2026-04-25T16:14:10.289Z</time></trkpt><trkpt lat="44.80222" lon="9.1730267"><ele>594.8000000000001</ele><time>2026-04-25T16:14:11.289Z</time></trkpt><trkpt lat="44.8023017" lon="9.1729033"><ele>597.0</ele><time>2026-04-25T16:14:12.288Z</time></trkpt><trkpt lat="44.80238" lon="9.1727883"><ele>597.0</ele><time>2026-04-25T16:14:13.288Z</time></trkpt><trkpt lat="44.8024617" lon="9.17268"><ele>597.0</ele><time>2026-04-25T16:14:14.289Z</time></trkpt><trkpt lat="44.80254" lon="9.1725717"><ele>597.0</ele><time>2026-04-25T16:14:15.289Z</time></trkpt><trkpt lat="44.8026117" lon="9.1724583"><ele>597.0</ele><time>2026-04-25T16:14:16.288Z</time></trkpt><trkpt lat="44.80269" lon="9.172345"><ele>597.0</ele><time>2026-04-25T16:14:17.289Z</time></trkpt><trkpt lat="44.802765" lon="9.1722317"><ele>597.5</ele><time>2026-04-25T16:14:18.289Z</time></trkpt><trkpt lat="44.8028433" lon="9.1721117"><ele>598.0</ele><time>2026-04-25T16:14:19.289Z</time></trkpt><trkpt lat="44.8029217" lon="9.1719933"><ele>598.5</ele><time>2026-04-25T16:14:20.288Z</time></trkpt><trkpt lat="44.8030017" lon="9.1718733"><ele>599.0</ele><time>2026-04-25T16:14:21.289Z</time></trkpt><trkpt lat="44.8030817" lon="9.1717567"><ele>599.0</ele><time>2026-04-25T16:14:22.289Z</time></trkpt><trkpt lat="44.80317" lon="9.1716583"><ele>599.0</ele><time>2026-04-25T16:14:23.289Z</time></trkpt><trkpt lat="44.8032717" lon="9.1715717"><ele>599.0</ele><time>2026-04-25T16:14:24.289Z</time></trkpt><trkpt lat="44.803385" lon="9.171515"><ele>599.0</ele><time>2026-04-25T16:14:25.289Z</time></trkpt><trkpt lat="44.8034983" lon="9.1714633"><ele>604.2</ele><time>2026-04-25T16:14:26.289Z</time></trkpt><trkpt lat="44.8036067" lon="9.1714317"><ele>609.4</ele><time>2026-04-25T16:14:27.289Z</time></trkpt><trkpt lat="44.8037" lon="9.1713633"><ele>614.6</ele><time>2026-04-25T16:14:28.288Z</time></trkpt><trkpt lat="44.8037917" lon="9.17128"><ele>619.8</ele><time>2026-04-25T16:14:29.289Z</time></trkpt><trkpt lat="44.8038833" lon="9.1711967"><ele>625.0</ele><time>2026-04-25T16:14:30.289Z</time></trkpt><trkpt lat="44.803965" lon="9.1711367"><ele>625.0</ele><time>2026-04-25T16:14:31.289Z</time></trkpt><trkpt lat="44.8040483" lon="9.1711117"><ele>625.0</ele><time>2026-04-25T16:14:32.289Z</time></trkpt><trkpt lat="44.80413" lon="9.1711167"><ele>625.0</ele><time>2026-04-25T16:14:33.289Z</time></trkpt><trkpt lat="44.804225" lon="9.1711617"><ele>625.0</ele><time>2026-04-25T16:14:34.289Z</time></trkpt><trkpt lat="44.8043133" lon="9.17124"><ele>625.0</ele><time>2026-04-25T16:14:35.289Z</time></trkpt><trkpt lat="44.80439" lon="9.1713283"><ele>625.1666666666667</ele><time>2026-04-25T16:14:36.289Z</time></trkpt><trkpt lat="44.8044617" lon="9.1713867"><ele>625.3333333333334</ele><time>2026-04-25T16:14:37.289Z</time></trkpt><trkpt lat="44.8045383" lon="9.1714117"><ele>625.5</ele><time>2026-04-25T16:14:38.288Z</time></trkpt><trkpt lat="44.8046217" lon="9.1713967"><ele>625.6666666666666</ele><time>2026-04-25T16:14:39.289Z</time></trkpt><trkpt lat="44.8046917" lon="9.1713367"><ele>625.8333333333333</ele><time>2026-04-25T16:14:40.289Z</time></trkpt><trkpt lat="44.804755" lon="9.17124"><ele>626.0</ele><time>2026-04-25T16:14:41.289Z</time></trkpt><trkpt lat="44.804825" lon="9.17113"><ele>626.0</ele><time>2026-04-25T16:14:42.289Z</time></trkpt><trkpt lat="44.8049" lon="9.1710283"><ele>626.0</ele><time>2026-04-25T16:14:43.289Z</time></trkpt><trkpt lat="44.8049817" lon="9.17093"><ele>626.0</ele><time>2026-04-25T16:14:44.289Z</time></trkpt><trkpt lat="44.805065" lon="9.1708317"><ele>626.0</ele><time>2026-04-25T16:14:45.288Z</time></trkpt><trkpt lat="44.8051483" lon="9.1707317"><ele>626.0</ele><time>2026-04-25T16:14:46.289Z</time></trkpt><trkpt lat="44.80523" lon="9.1706517"><ele>629.6666666666666</ele><time>2026-04-25T16:14:47.289Z</time></trkpt><trkpt lat="44.8053133" lon="9.170595"><ele>633.3333333333333</ele><time>2026-04-25T16:14:48.289Z</time></trkpt><trkpt lat="44.8053983" lon="9.17056"><ele>637.0</ele><time>2026-04-25T16:14:49.289Z</time></trkpt><trkpt lat="44.8054667" lon="9.17053"><ele>640.6666666666666</ele><time>2026-04-25T16:14:50.289Z</time></trkpt><trkpt lat="44.8055233" lon="9.17044"><ele>644.3333333333334</ele><time>2026-04-25T16:14:52.289Z</time></trkpt><trkpt lat="44.8054983" lon="9.170335"><ele>648.0</ele><time>2026-04-25T16:14:54.289Z</time></trkpt><trkpt lat="44.8054033" lon="9.1703317"><ele>648.0</ele><time>2026-04-25T16:14:56.289Z</time></trkpt><trkpt lat="44.80534" lon="9.1703667"><ele>648.0</ele><time>2026-04-25T16:14:57.289Z</time></trkpt><trkpt lat="44.8052617" lon="9.1704117"><ele>648.0</ele><time>2026-04-25T16:14:58.288Z</time></trkpt><trkpt lat="44.8051733" lon="9.1704733"><ele>648.0</ele><time>2026-04-25T16:14:59.289Z</time></trkpt><trkpt lat="44.8050733" lon="9.1705383"><ele>648.0</ele><time>2026-04-25T16:15:00.289Z</time></trkpt><trkpt lat="44.8049733" lon="9.1705917"><ele>649.4</ele><time>2026-04-25T16:15:01.289Z</time></trkpt><trkpt lat="44.804875" lon="9.1706467"><ele>650.8</ele><time>2026-04-25T16:15:02.289Z</time></trkpt><trkpt lat="44.8047833" lon="9.1707133"><ele>652.2</ele><time>2026-04-25T16:15:03.289Z</time></trkpt><trkpt lat="44.8047" lon="9.17077"><ele>653.6</ele><time>2026-04-25T16:15:04.288Z</time></trkpt><trkpt lat="44.80463" lon="9.1707983"><ele>655.0</ele><time>2026-04-25T16:15:05.289Z</time></trkpt><trkpt lat="44.8045233" lon="9.170785"><ele>655.0</ele><time>2026-04-25T16:15:07.289Z</time></trkpt><trkpt lat="44.8044683" lon="9.170735"><ele>655.0</ele><time>2026-04-25T16:15:08.288Z</time></trkpt><trkpt lat="44.8044017" lon="9.1706733"><ele>655.0</ele><time>2026-04-25T16:15:09.289Z</time></trkpt><trkpt lat="44.8043233" lon="9.170615"><ele>655.0</ele><time>2026-04-25T16:15:10.289Z</time></trkpt><trkpt lat="44.804235" lon="9.1705717"><ele>655.0</ele><time>2026-04-25T16:15:11.289Z</time></trkpt><trkpt lat="44.8041417" lon="9.170545"><ele>655.0</ele><time>2026-04-25T16:15:12.289Z</time></trkpt><trkpt lat="44.80405" lon="9.1705233"><ele>653.1666666666667</ele><time>2026-04-25T16:15:13.288Z</time></trkpt><trkpt lat="44.8039567" lon="9.170505"><ele>651.3333333333334</ele><time>2026-04-25T16:15:14.289Z</time></trkpt><trkpt lat="44.80387" lon="9.1704867"><ele>649.5</ele><time>2026-04-25T16:15:15.289Z</time></trkpt><trkpt lat="44.803785" lon="9.1704133"><ele>647.6666666666666</ele><time>2026-04-25T16:15:17.288Z</time></trkpt><trkpt lat="44.8037983" lon="9.170285"><ele>645.8333333333333</ele><time>2026-04-25T16:15:19.289Z</time></trkpt><trkpt lat="44.8038383" lon="9.1702133"><ele>644.0</ele><time>2026-04-25T16:15:20.289Z</time></trkpt><trkpt lat="44.8038867" lon="9.170135"><ele>644.0</ele><time>2026-04-25T16:15:21.289Z</time></trkpt><trkpt lat="44.8039383" lon="9.170055"><ele>644.0</ele><time>2026-04-25T16:15:22.289Z</time></trkpt><trkpt lat="44.804" lon="9.16998"><ele>644.0</ele><time>2026-04-25T16:15:23.289Z</time></trkpt><trkpt lat="44.8040717" lon="9.1699033"><ele>644.0</ele><time>2026-04-25T16:15:24.289Z</time></trkpt><trkpt lat="44.8041467" lon="9.16983"><ele>644.0</ele><time>2026-04-25T16:15:25.289Z</time></trkpt><trkpt lat="44.8042267" lon="9.1697517"><ele>644.0</ele><time>2026-04-25T16:15:26.289Z</time></trkpt><trkpt lat="44.8043067" lon="9.1696683"><ele>646.8000000000001</ele><time>2026-04-25T16:15:27.289Z</time></trkpt><trkpt lat="44.8043717" lon="9.1695667"><ele>649.6</ele><time>2026-04-25T16:15:28.289Z</time></trkpt><trkpt lat="44.8044317" lon="9.169465"><ele>652.4</ele><time>2026-04-25T16:15:29.289Z</time></trkpt><trkpt lat="44.8044917" lon="9.16937"><ele>655.2</ele><time>2026-04-25T16:15:30.289Z</time></trkpt><trkpt lat="44.8045617" lon="9.1692833"><ele>658.0</ele><time>2026-04-25T16:15:31.289Z</time></trkpt><trkpt lat="44.8046433" lon="9.169215"><ele>658.0</ele><time>2026-04-25T16:15:32.288Z</time></trkpt><trkpt lat="44.8047367" lon="9.1691817"><ele>658.0</ele><time>2026-04-25T16:15:33.289Z</time></trkpt><trkpt lat="44.804835" lon="9.1691583"><ele>658.0</ele><time>2026-04-25T16:15:34.289Z</time></trkpt><trkpt lat="44.80494" lon="9.1691167"><ele>658.0</ele><time>2026-04-25T16:15:35.289Z</time></trkpt><trkpt lat="44.8050333" lon="9.1690567"><ele>658.0</ele><time>2026-04-25T16:15:36.289Z</time></trkpt><trkpt lat="44.805115" lon="9.1689867"><ele>664.2</ele><time>2026-04-25T16:15:37.289Z</time></trkpt><trkpt lat="44.805165" lon="9.1688967"><ele>670.4</ele><time>2026-04-25T16:15:38.289Z</time></trkpt><trkpt lat="44.8052033" lon="9.1687767"><ele>676.6</ele><time>2026-04-25T16:15:39.289Z</time></trkpt><trkpt lat="44.805235" lon="9.16865"><ele>682.8000000000001</ele><time>2026-04-25T16:15:40.289Z</time></trkpt><trkpt lat="44.8052833" lon="9.1685267"><ele>689.0</ele><time>2026-04-25T16:15:41.289Z</time></trkpt><trkpt lat="44.8053383" lon="9.1684283"><ele>689.0</ele><time>2026-04-25T16:15:42.289Z</time></trkpt><trkpt lat="44.805395" lon="9.1683383"><ele>689.0</ele><time>2026-04-25T16:15:43.289Z</time></trkpt><trkpt lat="44.8054467" lon="9.1682533"><ele>689.0</ele><time>2026-04-25T16:15:44.289Z</time></trkpt><trkpt lat="44.8054883" lon="9.168155"><ele>689.0</ele><time>2026-04-25T16:15:45.289Z</time></trkpt><trkpt lat="44.8054967" lon="9.1680567"><ele>689.0</ele><time>2026-04-25T16:15:46.289Z</time></trkpt><trkpt lat="44.8054767" lon="9.1679467"><ele>689.0</ele><time>2026-04-25T16:15:47.289Z</time></trkpt><trkpt lat="44.8054333" lon="9.1678333"><ele>689.2</ele><time>2026-04-25T16:15:48.289Z</time></trkpt><trkpt lat="44.8053817" lon="9.1677183"><ele>689.4000000000001</ele><time>2026-04-25T16:15:49.289Z</time></trkpt><trkpt lat="44.8053333" lon="9.1676083"><ele>689.6</ele><time>2026-04-25T16:15:50.289Z</time></trkpt><trkpt lat="44.8052733" lon="9.167495"><ele>689.8</ele><time>2026-04-25T16:15:51.289Z</time></trkpt><trkpt lat="44.805215" lon="9.1673833"><ele>690.0</ele><time>2026-04-25T16:15:52.289Z</time></trkpt><trkpt lat="44.80515" lon="9.1672933"><ele>690.0</ele><time>2026-04-25T16:15:53.288Z</time></trkpt><trkpt lat="44.80507" lon="9.16722"><ele>690.0</ele><time>2026-04-25T16:15:54.289Z</time></trkpt><trkpt lat="44.8050083" lon="9.1671517"><ele>690.0</ele><time>2026-04-25T16:15:55.289Z</time></trkpt><trkpt lat="44.8049583" lon="9.1670683"><ele>690.0</ele><time>2026-04-25T16:15:56.289Z</time></trkpt><trkpt lat="44.8049183" lon="9.1669683"><ele>690.0</ele><time>2026-04-25T16:15:57.288Z</time></trkpt><trkpt lat="44.8048817" lon="9.16686"><ele>690.0</ele><time>2026-04-25T16:15:58.289Z</time></trkpt><trkpt lat="44.8048433" lon="9.166745"><ele>690.0</ele><time>2026-04-25T16:15:59.289Z</time></trkpt><trkpt lat="44.804795" lon="9.1666283"><ele>690.0</ele><time>2026-04-25T16:16:00.289Z</time></trkpt><trkpt lat="44.8047367" lon="9.16652"><ele>690.0</ele><time>2026-04-25T16:16:01.289Z</time></trkpt><trkpt lat="44.8046617" lon="9.1664367"><ele>690.0</ele><time>2026-04-25T16:16:02.289Z</time></trkpt><trkpt lat="44.8045817" lon="9.1663717"><ele>690.0</ele><time>2026-04-25T16:16:03.289Z</time></trkpt><trkpt lat="44.8044867" lon="9.166315"><ele>692.2</ele><time>2026-04-25T16:16:04.289Z</time></trkpt><trkpt lat="44.8043883" lon="9.16628"><ele>694.4</ele><time>2026-04-25T16:16:05.289Z</time></trkpt><trkpt lat="44.8043017" lon="9.16625"><ele>696.5999999999999</ele><time>2026-04-25T16:16:06.289Z</time></trkpt><trkpt lat="44.8042133" lon="9.1662333"><ele>698.8</ele><time>2026-04-25T16:16:07.289Z</time></trkpt><trkpt lat="44.8041217" lon="9.16622"><ele>701.0</ele><time>2026-04-25T16:16:08.289Z</time></trkpt><trkpt lat="44.8040317" lon="9.1662183"><ele>701.0</ele><time>2026-04-25T16:16:09.289Z</time></trkpt><trkpt lat="44.803935" lon="9.1662233"><ele>701.0</ele><time>2026-04-25T16:16:10.289Z</time></trkpt><trkpt lat="44.8038333" lon="9.1662383"><ele>701.0</ele><time>2026-04-25T16:16:11.289Z</time></trkpt><trkpt lat="44.80373" lon="9.166245"><ele>701.0</ele><time>2026-04-25T16:16:12.289Z</time></trkpt><trkpt lat="44.8036233" lon="9.1662683"><ele>701.0</ele><time>2026-04-25T16:16:13.289Z</time></trkpt><trkpt lat="44.80352" lon="9.16631"><ele>700.5999999999999</ele><time>2026-04-25T16:16:14.289Z</time></trkpt><trkpt lat="44.8034217" lon="9.1663733"><ele>700.2</ele><time>2026-04-25T16:16:15.289Z</time></trkpt><trkpt lat="44.80333" lon="9.1664333"><ele>699.8</ele><time>2026-04-25T16:16:16.289Z</time></trkpt><trkpt lat="44.8032467" lon="9.16649"><ele>699.4000000000001</ele><time>2026-04-25T16:16:17.289Z</time></trkpt><trkpt lat="44.8031733" lon="9.1665233"><ele>699.0</ele><time>2026-04-25T16:16:18.289Z</time></trkpt><trkpt lat="44.8030667" lon="9.1665083"><ele>699.0</ele><time>2026-04-25T16:16:20.289Z</time></trkpt><trkpt lat="44.8030117" lon="9.16638"><ele>699.0</ele><time>2026-04-25T16:16:22.289Z</time></trkpt><trkpt lat="44.8030117" lon="9.1662783"><ele>699.0</ele><time>2026-04-25T16:16:23.289Z</time></trkpt><trkpt lat="44.8030217" lon="9.1661517"><ele>699.0</ele><time>2026-04-25T16:16:24.289Z</time></trkpt><trkpt lat="44.8030317" lon="9.166025"><ele>699.0</ele><time>2026-04-25T16:16:25.289Z</time></trkpt><trkpt lat="44.8030417" lon="9.1659017"><ele>699.0</ele><time>2026-04-25T16:16:26.289Z</time></trkpt><trkpt lat="44.8030517" lon="9.1657867"><ele>699.0</ele><time>2026-04-25T16:16:27.288Z</time></trkpt><trkpt lat="44.8030667" lon="9.1656983"><ele>699.0</ele><time>2026-04-25T16:16:28.289Z</time></trkpt><trkpt lat="44.8031567" lon="9.1655683"><ele>699.0</ele><time>2026-04-25T16:16:30.289Z</time></trkpt><trkpt lat="44.8032383" lon="9.1655283"><ele>699.0</ele><time>2026-04-25T16:16:31.289Z</time></trkpt><trkpt lat="44.8033333" lon="9.1654867"><ele>699.0</ele><time>2026-04-25T16:16:32.289Z</time></trkpt><trkpt lat="44.8034383" lon="9.1654367"><ele>698.2</ele><time>2026-04-25T16:16:33.289Z</time></trkpt><trkpt lat="44.80354" lon="9.1653717"><ele>697.4000000000001</ele><time>2026-04-25T16:16:34.289Z</time></trkpt><trkpt lat="44.8036383" lon="9.16529"><ele>696.6</ele><time>2026-04-25T16:16:35.289Z</time></trkpt><trkpt lat="44.803735" lon="9.1651983"><ele>695.8</ele><time>2026-04-25T16:16:36.289Z</time></trkpt><trkpt lat="44.8038217" lon="9.1651267"><ele>695.0</ele><time>2026-04-25T16:16:37.289Z</time></trkpt><trkpt lat="44.8039083" lon="9.1650583"><ele>695.0</ele><time>2026-04-25T16:16:38.289Z</time></trkpt><trkpt lat="44.8039967" lon="9.1650017"><ele>695.0</ele><time>2026-04-25T16:16:39.288Z</time></trkpt><trkpt lat="44.8040917" lon="9.1649717"><ele>695.0</ele><time>2026-04-25T16:16:40.289Z</time></trkpt><trkpt lat="44.804185" lon="9.1649383"><ele>695.0</ele><time>2026-04-25T16:16:41.289Z</time></trkpt><trkpt lat="44.80428" lon="9.16492"><ele>695.0</ele><time>2026-04-25T16:16:42.289Z</time></trkpt><trkpt lat="44.8043717" lon="9.1649083"><ele>694.6666666666666</ele><time>2026-04-25T16:16:43.289Z</time></trkpt><trkpt lat="44.8044583" lon="9.1648917"><ele>694.3333333333333</ele><time>2026-04-25T16:16:44.289Z</time></trkpt><trkpt lat="44.8045383" lon="9.16487"><ele>694.0</ele><time>2026-04-25T16:16:45.289Z</time></trkpt><trkpt lat="44.8046133" lon="9.1648383"><ele>693.6666666666666</ele><time>2026-04-25T16:16:46.289Z</time></trkpt><trkpt lat="44.8046783" lon="9.1647817"><ele>693.3333333333334</ele><time>2026-04-25T16:16:47.288Z</time></trkpt><trkpt lat="44.8047333" lon="9.164705"><ele>693.0</ele><time>2026-04-25T16:16:48.289Z</time></trkpt><trkpt lat="44.80476" lon="9.1645933"><ele>690.8</ele><time>2026-04-25T16:16:49.289Z</time></trkpt><trkpt lat="44.80478" lon="9.164455"><ele>688.5999999999999</ele><time>2026-04-25T16:16:50.289Z</time></trkpt><trkpt lat="44.80481" lon="9.1643117"><ele>686.4000000000001</ele><time>2026-04-25T16:16:51.289Z</time></trkpt><trkpt lat="44.804845" lon="9.1641667"><ele>684.2</ele><time>2026-04-25T16:16:52.289Z</time></trkpt><trkpt lat="44.8048883" lon="9.1640217"><ele>682.0</ele><time>2026-04-25T16:16:53.289Z</time></trkpt><trkpt lat="44.8049417" lon="9.1638733"><ele>677.5</ele><time>2026-04-25T16:16:54.288Z</time></trkpt><trkpt lat="44.805005" lon="9.163745"><ele>673.0</ele><time>2026-04-25T16:16:55.289Z</time></trkpt><trkpt lat="44.8050817" lon="9.1636283"><ele>668.5</ele><time>2026-04-25T16:16:56.288Z</time></trkpt><trkpt lat="44.8051767" lon="9.16352"><ele>664.0</ele><time>2026-04-25T16:16:57.288Z</time></trkpt><trkpt lat="44.8052583" lon="9.1634217"><ele>663.4000000000001</ele><time>2026-04-25T16:16:58.289Z</time></trkpt><trkpt lat="44.8053483" lon="9.1633233"><ele>662.8</ele><time>2026-04-25T16:16:59.289Z</time></trkpt><trkpt lat="44.80543" lon="9.163225"><ele>662.2</ele><time>2026-04-25T16:17:00.289Z</time></trkpt><trkpt lat="44.8055033" lon="9.1630983"><ele>661.5999999999999</ele><time>2026-04-25T16:17:01.289Z</time></trkpt><trkpt lat="44.8055567" lon="9.1629617"><ele>661.0</ele><time>2026-04-25T16:17:02.288Z</time></trkpt><trkpt lat="44.8055917" lon="9.162855"><ele>661.0</ele><time>2026-04-25T16:17:03.289Z</time></trkpt><trkpt lat="44.805665" lon="9.1627433"><ele>661.0</ele><time>2026-04-25T16:17:05.289Z</time></trkpt><trkpt lat="44.8057483" lon="9.1627817"><ele>661.0</ele><time>2026-04-25T16:17:07.289Z</time></trkpt><trkpt lat="44.80577" lon="9.16287"><ele>661.0</ele><time>2026-04-25T16:17:08.289Z</time></trkpt><trkpt lat="44.8057717" lon="9.1629867"><ele>661.0</ele><time>2026-04-25T16:17:09.289Z</time></trkpt><trkpt lat="44.8057567" lon="9.16312"><ele>661.0</ele><time>2026-04-25T16:17:10.289Z</time></trkpt><trkpt lat="44.8057433" lon="9.1632683"><ele>661.0</ele><time>2026-04-25T16:17:11.289Z</time></trkpt><trkpt lat="44.8057367" lon="9.163405"><ele>661.0</ele><time>2026-04-25T16:17:12.288Z</time></trkpt><trkpt lat="44.8057433" lon="9.163565"><ele>661.0</ele><time>2026-04-25T16:17:13.289Z</time></trkpt><trkpt lat="44.8057567" lon="9.1637233"><ele>661.0</ele><time>2026-04-25T16:17:14.289Z</time></trkpt><trkpt lat="44.8057667" lon="9.1638683"><ele>661.0</ele><time>2026-04-25T16:17:15.289Z</time></trkpt><trkpt lat="44.8057767" lon="9.1639917"><ele>660.8333333333334</ele><time>2026-04-25T16:17:16.289Z</time></trkpt><trkpt lat="44.8057917" lon="9.1641067"><ele>660.6666666666667</ele><time>2026-04-25T16:17:17.289Z</time></trkpt><trkpt lat="44.8058133" lon="9.1641983"><ele>660.5</ele><time>2026-04-25T16:17:18.288Z</time></trkpt><trkpt lat="44.8058433" lon="9.16428"><ele>660.3333333333334</ele><time>2026-04-25T16:17:19.289Z</time></trkpt><trkpt lat="44.8059283" lon="9.164405"><ele>660.1666666666666</ele><time>2026-04-25T16:17:21.288Z</time></trkpt><trkpt lat="44.8059833" lon="9.1644533"><ele>660.0</ele><time>2026-04-25T16:17:22.289Z</time></trkpt><trkpt lat="44.8060533" lon="9.1644717"><ele>660.0</ele><time>2026-04-25T16:17:23.289Z</time></trkpt><trkpt lat="44.8061317" lon="9.164475"><ele>660.0</ele><time>2026-04-25T16:17:24.289Z</time></trkpt><trkpt lat="44.806205" lon="9.1644717"><ele>660.0</ele><time>2026-04-25T16:17:25.289Z</time></trkpt><trkpt lat="44.8063217" lon="9.16444"><ele>660.0</ele><time>2026-04-25T16:17:27.289Z</time></trkpt><trkpt lat="44.8064017" lon="9.1643433"><ele>660.0</ele><time>2026-04-25T16:17:29.289Z</time></trkpt><trkpt lat="44.806415" lon="9.1642483"><ele>660.0</ele><time>2026-04-25T16:17:30.289Z</time></trkpt><trkpt lat="44.8064167" lon="9.16413"><ele>657.8333333333334</ele><time>2026-04-25T16:17:31.289Z</time></trkpt><trkpt lat="44.8064233" lon="9.164005"><ele>655.6666666666666</ele><time>2026-04-25T16:17:32.288Z</time></trkpt><trkpt lat="44.806435" lon="9.1638883"><ele>653.5</ele><time>2026-04-25T16:17:33.289Z</time></trkpt><trkpt lat="44.8064567" lon="9.1637767"><ele>651.3333333333333</ele><time>2026-04-25T16:17:34.289Z</time></trkpt><trkpt lat="44.80649" lon="9.1636833"><ele>649.1666666666666</ele><time>2026-04-25T16:17:35.289Z</time></trkpt><trkpt lat="44.8065283" lon="9.1635767"><ele>647.0</ele><time>2026-04-25T16:17:36.289Z</time></trkpt><trkpt lat="44.8065817" lon="9.163475"><ele>647.0</ele><time>2026-04-25T16:17:37.289Z</time></trkpt><trkpt lat="44.8066433" lon="9.1633717"><ele>647.0</ele><time>2026-04-25T16:17:38.289Z</time></trkpt><trkpt lat="44.8067017" lon="9.16328"><ele>647.0</ele><time>2026-04-25T16:17:39.289Z</time></trkpt><trkpt lat="44.8067617" lon="9.1631967"><ele>647.0</ele><time>2026-04-25T16:17:40.289Z</time></trkpt><trkpt lat="44.8068217" lon="9.1631217"><ele>647.0</ele><time>2026-04-25T16:17:41.289Z</time></trkpt><trkpt lat="44.8068883" lon="9.16306"><ele>647.0</ele><time>2026-04-25T16:17:42.289Z</time></trkpt><trkpt lat="44.8069567" lon="9.1630083"><ele>646.5</ele><time>2026-04-25T16:17:43.289Z</time></trkpt><trkpt lat="44.8070283" lon="9.16298"><ele>646.0</ele><time>2026-04-25T16:17:44.289Z</time></trkpt><trkpt lat="44.8071017" lon="9.16297"><ele>645.5</ele><time>2026-04-25T16:17:45.289Z</time></trkpt><trkpt lat="44.807185" lon="9.1629783"><ele>645.0</ele><time>2026-04-25T16:17:46.288Z</time></trkpt><trkpt lat="44.8072717" lon="9.162995"><ele>644.5</ele><time>2026-04-25T16:17:47.289Z</time></trkpt><trkpt lat="44.8073567" lon="9.1629967"><ele>644.0</ele><time>2026-04-25T16:17:48.289Z</time></trkpt><trkpt lat="44.807425" lon="9.16296"><ele>644.0</ele><time>2026-04-25T16:17:49.289Z</time></trkpt><trkpt lat="44.8074717" lon="9.1628833"><ele>644.0</ele><time>2026-04-25T16:17:50.289Z</time></trkpt><trkpt lat="44.8075067" lon="9.1627833"><ele>644.0</ele><time>2026-04-25T16:17:51.289Z</time></trkpt><trkpt lat="44.8075267" lon="9.16267"><ele>644.0</ele><time>2026-04-25T16:17:52.289Z</time></trkpt><trkpt lat="44.8075283" lon="9.1625533"><ele>644.0</ele><time>2026-04-25T16:17:53.289Z</time></trkpt><trkpt lat="44.8075083" lon="9.1624467"><ele>644.0</ele><time>2026-04-25T16:17:54.289Z</time></trkpt><trkpt lat="44.8074767" lon="9.1623167"><ele>645.2</ele><time>2026-04-25T16:17:55.289Z</time></trkpt><trkpt lat="44.8074317" lon="9.162185"><ele>646.4000000000001</ele><time>2026-04-25T16:17:56.289Z</time></trkpt><trkpt lat="44.80738" lon="9.1620417"><ele>647.6</ele><time>2026-04-25T16:17:57.289Z</time></trkpt><trkpt lat="44.8073283" lon="9.1619033"><ele>648.8</ele><time>2026-04-25T16:17:58.288Z</time></trkpt><trkpt lat="44.80728" lon="9.16175"><ele>650.0</ele><time>2026-04-25T16:17:59.288Z</time></trkpt><trkpt lat="44.807235" lon="9.161615"><ele>650.6666666666666</ele><time>2026-04-25T16:18:00.288Z</time></trkpt><trkpt lat="44.8071983" lon="9.1614817"><ele>651.3333333333333</ele><time>2026-04-25T16:18:01.288Z</time></trkpt><trkpt lat="44.807155" lon="9.1613733"><ele>652.0</ele><time>2026-04-25T16:18:02.288Z</time></trkpt><trkpt lat="44.8071033" lon="9.161295"><ele>652.6666666666666</ele><time>2026-04-25T16:18:03.288Z</time></trkpt><trkpt lat="44.8070483" lon="9.161215"><ele>653.3333333333334</ele><time>2026-04-25T16:18:04.288Z</time></trkpt><trkpt lat="44.8070017" lon="9.161145"><ele>654.0</ele><time>2026-04-25T16:18:05.288Z</time></trkpt><trkpt lat="44.806965" lon="9.16107"><ele>654.0</ele><time>2026-04-25T16:18:06.288Z</time></trkpt><trkpt lat="44.8069583" lon="9.1609767"><ele>654.0</ele><time>2026-04-25T16:18:07.288Z</time></trkpt><trkpt lat="44.8069717" lon="9.1608683"><ele>654.0</ele><time>2026-04-25T16:18:08.288Z</time></trkpt><trkpt lat="44.8070067" lon="9.1607467"><ele>654.0</ele><time>2026-04-25T16:18:09.288Z</time></trkpt><trkpt lat="44.80705" lon="9.1606133"><ele>654.0</ele><time>2026-04-25T16:18:10.288Z</time></trkpt><trkpt lat="44.8071217" lon="9.1604767"><ele>651.25</ele><time>2026-04-25T16:18:11.288Z</time></trkpt><trkpt lat="44.8072" lon="9.1603417"><ele>648.5</ele><time>2026-04-25T16:18:12.287Z</time></trkpt><trkpt lat="44.8072733" lon="9.1602017"><ele>645.75</ele><time>2026-04-25T16:18:13.288Z</time></trkpt><trkpt lat="44.8073217" lon="9.1600733"><ele>643.0</ele><time>2026-04-25T16:18:14.288Z</time></trkpt><trkpt lat="44.8073667" lon="9.1599433"><ele>640.0</ele><time>2026-04-25T16:18:15.288Z</time></trkpt><trkpt lat="44.8073883" lon="9.1598183"><ele>637.0</ele><time>2026-04-25T16:18:16.288Z</time></trkpt><trkpt lat="44.80741" lon="9.1596867"><ele>634.0</ele><time>2026-04-25T16:18:17.288Z</time></trkpt><trkpt lat="44.8074417" lon="9.1595533"><ele>631.0</ele><time>2026-04-25T16:18:18.288Z</time></trkpt><trkpt lat="44.807475" lon="9.15944"><ele>628.0</ele><time>2026-04-25T16:18:19.288Z</time></trkpt><trkpt lat="44.8075117" lon="9.15935"><ele>625.0</ele><time>2026-04-25T16:18:20.288Z</time></trkpt><trkpt lat="44.8075633" lon="9.1592617"><ele>625.0</ele><time>2026-04-25T16:18:21.288Z</time></trkpt><trkpt lat="44.8076217" lon="9.159185"><ele>625.0</ele><time>2026-04-25T16:18:22.288Z</time></trkpt><trkpt lat="44.8076933" lon="9.159125"><ele>625.0</ele><time>2026-04-25T16:18:23.288Z</time></trkpt><trkpt lat="44.8077733" lon="9.1590633"><ele>625.0</ele><time>2026-04-25T16:18:24.288Z</time></trkpt><trkpt lat="44.8078483" lon="9.1590017"><ele>625.0</ele><time>2026-04-25T16:18:25.288Z</time></trkpt><trkpt lat="44.807925" lon="9.1589333"><ele>625.0</ele><time>2026-04-25T16:18:26.288Z</time></trkpt><trkpt lat="44.8080017" lon="9.1588733"><ele>624.2</ele><time>2026-04-25T16:18:27.288Z</time></trkpt><trkpt lat="44.8080867" lon="9.15882"><ele>623.4</ele><time>2026-04-25T16:18:28.288Z</time></trkpt><trkpt lat="44.8081617" lon="9.15878"><ele>622.6</ele><time>2026-04-25T16:18:29.288Z</time></trkpt><trkpt lat="44.8082417" lon="9.1587567"><ele>621.8</ele><time>2026-04-25T16:18:30.288Z</time></trkpt><trkpt lat="44.8083633" lon="9.1587783"><ele>621.0</ele><time>2026-04-25T16:18:32.288Z</time></trkpt><trkpt lat="44.8084317" lon="9.1588417"><ele>621.75</ele><time>2026-04-25T16:18:33.288Z</time></trkpt><trkpt lat="44.8085067" lon="9.1589433"><ele>622.5</ele><time>2026-04-25T16:18:34.288Z</time></trkpt><trkpt lat="44.8085917" lon="9.1590683"><ele>623.25</ele><time>2026-04-25T16:18:35.288Z</time></trkpt><trkpt lat="44.8086867" lon="9.1592133"><ele>624.0</ele><time>2026-04-25T16:18:36.288Z</time></trkpt><trkpt lat="44.8087783" lon="9.15932"><ele>624.0</ele><time>2026-04-25T16:18:37.288Z</time></trkpt><trkpt lat="44.808865" lon="9.1594117"><ele>624.0</ele><time>2026-04-25T16:18:38.288Z</time></trkpt><trkpt lat="44.80895" lon="9.159485"><ele>624.0</ele><time>2026-04-25T16:18:39.287Z</time></trkpt><trkpt lat="44.8090317" lon="9.1595533"><ele>624.0</ele><time>2026-04-25T16:18:40.288Z</time></trkpt><trkpt lat="44.8091133" lon="9.1596083"><ele>624.0</ele><time>2026-04-25T16:18:41.288Z</time></trkpt><trkpt lat="44.80919" lon="9.1596667"><ele>624.0</ele><time>2026-04-25T16:18:42.288Z</time></trkpt><trkpt lat="44.80927" lon="9.15972"><ele>624.0</ele><time>2026-04-25T16:18:43.288Z</time></trkpt><trkpt lat="44.80936" lon="9.1597483"><ele>624.0</ele><time>2026-04-25T16:18:44.288Z</time></trkpt><trkpt lat="44.8094517" lon="9.1597683"><ele>624.0</ele><time>2026-04-25T16:18:45.288Z</time></trkpt><trkpt lat="44.8095467" lon="9.1597933"><ele>624.0</ele><time>2026-04-25T16:18:46.288Z</time></trkpt><trkpt lat="44.8096383" lon="9.1598167"><ele>622.6666666666666</ele><time>2026-04-25T16:18:47.288Z</time></trkpt><trkpt lat="44.8097133" lon="9.15984"><ele>621.3333333333334</ele><time>2026-04-25T16:18:48.288Z</time></trkpt><trkpt lat="44.8097817" lon="9.1598517"><ele>620.0</ele><time>2026-04-25T16:18:49.288Z</time></trkpt><trkpt lat="44.8098483" lon="9.1598383"><ele>618.6666666666667</ele><time>2026-04-25T16:18:51.288Z</time></trkpt><trkpt lat="44.8097983" lon="9.1597217"><ele>617.3333333333334</ele><time>2026-04-25T16:18:55.288Z</time></trkpt><trkpt lat="44.809675" lon="9.159645"><ele>616.0</ele><time>2026-04-25T16:18:57.288Z</time></trkpt><trkpt lat="44.8095917" lon="9.1596167"><ele>616.0</ele><time>2026-04-25T16:18:58.288Z</time></trkpt><trkpt lat="44.809515" lon="9.15959"><ele>616.0</ele><time>2026-04-25T16:18:59.288Z</time></trkpt><trkpt lat="44.80945" lon="9.1595667"><ele>616.0</ele><time>2026-04-25T16:19:00.287Z</time></trkpt><trkpt lat="44.8093867" lon="9.1595267"><ele>616.0</ele><time>2026-04-25T16:19:01.287Z</time></trkpt><trkpt lat="44.8093283" lon="9.1594583"><ele>616.0</ele><time>2026-04-25T16:19:02.288Z</time></trkpt><trkpt lat="44.8092633" lon="9.159365"><ele>616.0</ele><time>2026-04-25T16:19:03.288Z</time></trkpt><trkpt lat="44.8091967" lon="9.1592517"><ele>614.5</ele><time>2026-04-25T16:19:04.288Z</time></trkpt><trkpt lat="44.80912" lon="9.159105"><ele>613.0</ele><time>2026-04-25T16:19:05.288Z</time></trkpt><trkpt lat="44.80904" lon="9.1589633"><ele>611.5</ele><time>2026-04-25T16:19:06.288Z</time></trkpt><trkpt lat="44.8089633" lon="9.1588333"><ele>610.0</ele><time>2026-04-25T16:19:07.288Z</time></trkpt><trkpt lat="44.8089" lon="9.158705"><ele>610.0</ele><time>2026-04-25T16:19:08.287Z</time></trkpt><trkpt lat="44.808825" lon="9.158565"><ele>610.0</ele><time>2026-04-25T16:19:09.288Z</time></trkpt><trkpt lat="44.80876" lon="9.15843"><ele>610.0</ele><time>2026-04-25T16:19:10.288Z</time></trkpt><trkpt lat="44.8087067" lon="9.158305"><ele>610.0</ele><time>2026-04-25T16:19:11.288Z</time></trkpt><trkpt lat="44.8086683" lon="9.1582117"><ele>610.0</ele><time>2026-04-25T16:19:12.288Z</time></trkpt><trkpt lat="44.8086317" lon="9.1581333"><ele>608.0</ele><time>2026-04-25T16:19:13.288Z</time></trkpt><trkpt lat="44.8085383" lon="9.1580183"><ele>606.0</ele><time>2026-04-25T16:19:15.288Z</time></trkpt><trkpt lat="44.8084233" lon="9.1579183"><ele>604.0</ele><time>2026-04-25T16:19:17.288Z</time></trkpt><trkpt lat="44.8083117" lon="9.1578483"><ele>602.0</ele><time>2026-04-25T16:19:19.287Z</time></trkpt><trkpt lat="44.808185" lon="9.1578683"><ele>602.0</ele><time>2026-04-25T16:19:21.287Z</time></trkpt><trkpt lat="44.8081133" lon="9.1579267"><ele>602.0</ele><time>2026-04-25T16:19:22.288Z</time></trkpt><trkpt lat="44.8080433" lon="9.158"><ele>602.0</ele><time>2026-04-25T16:19:23.288Z</time></trkpt><trkpt lat="44.8079633" lon="9.158095"><ele>602.0</ele><time>2026-04-25T16:19:24.288Z</time></trkpt><trkpt lat="44.8078833" lon="9.1581983"><ele>602.0</ele><time>2026-04-25T16:19:25.288Z</time></trkpt><trkpt lat="44.8078083" lon="9.1582833"><ele>603.1428571428571</ele><time>2026-04-25T16:19:26.288Z</time></trkpt><trkpt lat="44.807735" lon="9.1583483"><ele>604.2857142857142</ele><time>2026-04-25T16:19:27.288Z</time></trkpt><trkpt lat="44.80767" lon="9.1583983"><ele>605.4285714285714</ele><time>2026-04-25T16:19:28.288Z</time></trkpt><trkpt lat="44.8076117" lon="9.15844"><ele>606.5714285714286</ele><time>2026-04-25T16:19:29.288Z</time></trkpt><trkpt lat="44.8075483" lon="9.1584733"><ele>607.7142857142857</ele><time>2026-04-25T16:19:30.288Z</time></trkpt><trkpt lat="44.80748" lon="9.15848"><ele>608.8571428571429</ele><time>2026-04-25T16:19:31.288Z</time></trkpt><trkpt lat="44.8074133" lon="9.1584783"><ele>610.0</ele><time>2026-04-25T16:19:32.288Z</time></trkpt><trkpt lat="44.807305" lon="9.158455"><ele>610.0</ele><time>2026-04-25T16:19:34.288Z</time></trkpt><trkpt lat="44.8072467" lon="9.1583833"><ele>610.0</ele><time>2026-04-25T16:19:36.288Z</time></trkpt><trkpt lat="44.807245" lon="9.1582867"><ele>610.0</ele><time>2026-04-25T16:19:38.288Z</time></trkpt><trkpt lat="44.807295" lon="9.158185"><ele>610.0</ele><time>2026-04-25T16:19:40.288Z</time></trkpt><trkpt lat="44.8073767" lon="9.1580767"><ele>610.0</ele><time>2026-04-25T16:19:42.288Z</time></trkpt><trkpt lat="44.8074267" lon="9.1580067"><ele>610.0</ele><time>2026-04-25T16:19:43.288Z</time></trkpt><trkpt lat="44.8074817" lon="9.15793"><ele>610.8</ele><time>2026-04-25T16:19:44.288Z</time></trkpt><trkpt lat="44.80754" lon="9.15784"><ele>611.6</ele><time>2026-04-25T16:19:45.287Z</time></trkpt><trkpt lat="44.80759" lon="9.1577333"><ele>612.4</ele><time>2026-04-25T16:19:46.288Z</time></trkpt><trkpt lat="44.8076433" lon="9.1575983"><ele>613.2</ele><time>2026-04-25T16:19:47.288Z</time></trkpt><trkpt lat="44.8077083" lon="9.1574633"><ele>614.0</ele><time>2026-04-25T16:19:48.288Z</time></trkpt><trkpt lat="44.8077783" lon="9.157335"><ele>610.6</ele><time>2026-04-25T16:19:49.288Z</time></trkpt><trkpt lat="44.8078483" lon="9.1572433"><ele>607.2</ele><time>2026-04-25T16:19:50.288Z</time></trkpt><trkpt lat="44.80791" lon="9.157155"><ele>603.8000000000001</ele><time>2026-04-25T16:19:51.288Z</time></trkpt><trkpt lat="44.8079533" lon="9.157085"><ele>600.4</ele><time>2026-04-25T16:19:52.288Z</time></trkpt><trkpt lat="44.8079817" lon="9.156935"><ele>597.0</ele><time>2026-04-25T16:19:54.288Z</time></trkpt><trkpt lat="44.8078767" lon="9.156785"><ele>597.0</ele><time>2026-04-25T16:19:56.288Z</time></trkpt><trkpt lat="44.807785" lon="9.156705"><ele>597.0</ele><time>2026-04-25T16:19:57.288Z</time></trkpt><trkpt lat="44.8076967" lon="9.1566183"><ele>597.0</ele><time>2026-04-25T16:19:58.288Z</time></trkpt><trkpt lat="44.80761" lon="9.156515"><ele>597.0</ele><time>2026-04-25T16:19:59.288Z</time></trkpt><trkpt lat="44.8075183" lon="9.1564133"><ele>597.0</ele><time>2026-04-25T16:20:00.288Z</time></trkpt><trkpt lat="44.80742" lon="9.1563067"><ele>599.0</ele><time>2026-04-25T16:20:01.288Z</time></trkpt><trkpt lat="44.8073167" lon="9.156195"><ele>601.0</ele><time>2026-04-25T16:20:02.288Z</time></trkpt><trkpt lat="44.8072067" lon="9.1560867"><ele>603.0</ele><time>2026-04-25T16:20:03.288Z</time></trkpt><trkpt lat="44.807095" lon="9.155975"><ele>605.0</ele><time>2026-04-25T16:20:04.288Z</time></trkpt><trkpt lat="44.8069833" lon="9.1558683"><ele>605.0</ele><time>2026-04-25T16:20:05.288Z</time></trkpt><trkpt lat="44.8068683" lon="9.1557683"><ele>605.0</ele><time>2026-04-25T16:20:06.288Z</time></trkpt><trkpt lat="44.80676" lon="9.1556633"><ele>605.0</ele><time>2026-04-25T16:20:07.288Z</time></trkpt><trkpt lat="44.80667" lon="9.155545"><ele>605.0</ele><time>2026-04-25T16:20:08.288Z</time></trkpt><trkpt lat="44.80658" lon="9.1554167"><ele>607.25</ele><time>2026-04-25T16:20:09.288Z</time></trkpt><trkpt lat="44.8064967" lon="9.1552817"><ele>609.5</ele><time>2026-04-25T16:20:10.288Z</time></trkpt><trkpt lat="44.806425" lon="9.15514"><ele>611.75</ele><time>2026-04-25T16:20:11.288Z</time></trkpt><trkpt lat="44.8063617" lon="9.15499"><ele>614.0</ele><time>2026-04-25T16:20:12.288Z</time></trkpt><trkpt lat="44.806305" lon="9.15483"><ele>616.0</ele><time>2026-04-25T16:20:13.287Z</time></trkpt><trkpt lat="44.8062433" lon="9.154675"><ele>618.0</ele><time>2026-04-25T16:20:14.288Z</time></trkpt><trkpt lat="44.8062017" lon="9.15452"><ele>620.0</ele><time>2026-04-25T16:20:15.288Z</time></trkpt><trkpt lat="44.8061683" lon="9.1543733"><ele>622.0</ele><time>2026-04-25T16:20:16.288Z</time></trkpt><trkpt lat="44.806135" lon="9.1542283"><ele>622.0</ele><time>2026-04-25T16:20:17.288Z</time></trkpt><trkpt lat="44.8061083" lon="9.1541133"><ele>622.0</ele><time>2026-04-25T16:20:18.288Z</time></trkpt><trkpt lat="44.8060617" lon="9.1540067"><ele>622.0</ele><time>2026-04-25T16:20:19.287Z</time></trkpt><trkpt lat="44.806" lon="9.1539233"><ele>622.0</ele><time>2026-04-25T16:20:20.288Z</time></trkpt><trkpt lat="44.8059417" lon="9.1538467"><ele>622.0</ele><time>2026-04-25T16:20:21.288Z</time></trkpt><trkpt lat="44.8058417" lon="9.153765"><ele>624.5</ele><time>2026-04-25T16:20:22.288Z</time></trkpt><trkpt lat="44.8057433" lon="9.1536717"><ele>627.0</ele><time>2026-04-25T16:20:23.288Z</time></trkpt><trkpt lat="44.8056567" lon="9.153575"><ele>629.5</ele><time>2026-04-25T16:20:24.288Z</time></trkpt><trkpt lat="44.8055633" lon="9.153465"><ele>632.0</ele><time>2026-04-25T16:20:25.288Z</time></trkpt><trkpt lat="44.8054717" lon="9.1533633"><ele>632.0</ele><time>2026-04-25T16:20:26.288Z</time></trkpt><trkpt lat="44.80538" lon="9.1532633"><ele>632.0</ele><time>2026-04-25T16:20:27.288Z</time></trkpt><trkpt lat="44.8052717" lon="9.1531667"><ele>632.0</ele><time>2026-04-25T16:20:28.288Z</time></trkpt><trkpt lat="44.8051733" lon="9.1530617"><ele>632.0</ele><time>2026-04-25T16:20:29.288Z</time></trkpt><trkpt lat="44.8050833" lon="9.1529567"><ele>634.0</ele><time>2026-04-25T16:20:30.287Z</time></trkpt><trkpt lat="44.8049817" lon="9.15284"><ele>636.0</ele><time>2026-04-25T16:20:31.288Z</time></trkpt><trkpt lat="44.8048817" lon="9.1527067"><ele>638.0</ele><time>2026-04-25T16:20:32.287Z</time></trkpt><trkpt lat="44.8047783" lon="9.1525767"><ele>640.0</ele><time>2026-04-25T16:20:33.288Z</time></trkpt><trkpt lat="44.804685" lon="9.1524583"><ele>641.6</ele><time>2026-04-25T16:20:34.288Z</time></trkpt><trkpt lat="44.8045817" lon="9.1523417"><ele>643.2</ele><time>2026-04-25T16:20:35.288Z</time></trkpt><trkpt lat="44.8045" lon="9.1522417"><ele>644.8</ele><time>2026-04-25T16:20:36.288Z</time></trkpt><trkpt lat="44.80443" lon="9.1521417"><ele>646.4</ele><time>2026-04-25T16:20:37.288Z</time></trkpt><trkpt lat="44.8043817" lon="9.1520233"><ele>648.0</ele><time>2026-04-25T16:20:38.288Z</time></trkpt><trkpt lat="44.8043667" lon="9.15189"><ele>648.0</ele><time>2026-04-25T16:20:39.288Z</time></trkpt><trkpt lat="44.8043567" lon="9.15176"><ele>648.0</ele><time>2026-04-25T16:20:40.288Z</time></trkpt><trkpt lat="44.8043517" lon="9.15161"><ele>648.0</ele><time>2026-04-25T16:20:41.288Z</time></trkpt><trkpt lat="44.8043533" lon="9.1514583"><ele>648.0</ele><time>2026-04-25T16:20:42.288Z</time></trkpt><trkpt lat="44.8043717" lon="9.1513167"><ele>648.0</ele><time>2026-04-25T16:20:43.288Z</time></trkpt><trkpt lat="44.8044083" lon="9.1511917"><ele>648.3333333333334</ele><time>2026-04-25T16:20:44.288Z</time></trkpt><trkpt lat="44.80446" lon="9.1510883"><ele>648.6666666666666</ele><time>2026-04-25T16:20:45.288Z</time></trkpt><trkpt lat="44.8045233" lon="9.15099"><ele>649.0</ele><time>2026-04-25T16:20:46.288Z</time></trkpt><trkpt lat="44.8045783" lon="9.1508883"><ele>649.3333333333333</ele><time>2026-04-25T16:20:47.287Z</time></trkpt><trkpt lat="44.804615" lon="9.1507867"><ele>649.6666666666666</ele><time>2026-04-25T16:20:48.288Z</time></trkpt><trkpt lat="44.804625" lon="9.1506967"><ele>650.0</ele><time>2026-04-25T16:20:49.288Z</time></trkpt><trkpt lat="44.8045633" lon="9.1505317"><ele>650.0</ele><time>2026-04-25T16:20:51.288Z</time></trkpt><trkpt lat="44.8044733" lon="9.1504283"><ele>650.0</ele><time>2026-04-25T16:20:52.288Z</time></trkpt><trkpt lat="44.8043767" lon="9.1503167"><ele>650.0</ele><time>2026-04-25T16:20:53.288Z</time></trkpt><trkpt lat="44.804285" lon="9.1502017"><ele>650.0</ele><time>2026-04-25T16:20:54.288Z</time></trkpt><trkpt lat="44.804195" lon="9.15009"><ele>650.6</ele><time>2026-04-25T16:20:55.288Z</time></trkpt><trkpt lat="44.8041033" lon="9.149995"><ele>651.2</ele><time>2026-04-25T16:20:56.288Z</time></trkpt><trkpt lat="44.8040183" lon="9.1498983"><ele>651.8</ele><time>2026-04-25T16:20:57.287Z</time></trkpt><trkpt lat="44.8039417" lon="9.1498033"><ele>652.4</ele><time>2026-04-25T16:20:58.288Z</time></trkpt><trkpt lat="44.8038783" lon="9.1497317"><ele>653.0</ele><time>2026-04-25T16:20:59.288Z</time></trkpt><trkpt lat="44.8038283" lon="9.1496483"><ele>653.5</ele><time>2026-04-25T16:21:00.288Z</time></trkpt><trkpt lat="44.8037867" lon="9.1495567"><ele>654.0</ele><time>2026-04-25T16:21:01.288Z</time></trkpt><trkpt lat="44.803755" lon="9.14946"><ele>654.5</ele><time>2026-04-25T16:21:02.288Z</time></trkpt><trkpt lat="44.8037283" lon="9.1493717"><ele>655.0</ele><time>2026-04-25T16:21:03.288Z</time></trkpt><trkpt lat="44.8036883" lon="9.1492817"><ele>655.5</ele><time>2026-04-25T16:21:05.288Z</time></trkpt><trkpt lat="44.80359" lon="9.1493633"><ele>656.0</ele><time>2026-04-25T16:21:08.288Z</time></trkpt><trkpt lat="44.8035433" lon="9.1494317"><ele>654.1999999999999</ele><time>2026-04-25T16:21:09.288Z</time></trkpt><trkpt lat="44.803495" lon="9.1495083"><ele>652.4</ele><time>2026-04-25T16:21:10.288Z</time></trkpt><trkpt lat="44.8033683" lon="9.1495617"><ele>650.6</ele><time>2026-04-25T16:21:12.288Z</time></trkpt><trkpt lat="44.803285" lon="9.1495333"><ele>648.8</ele><time>2026-04-25T16:21:13.288Z</time></trkpt><trkpt lat="44.8032067" lon="9.149485"><ele>647.0</ele><time>2026-04-25T16:21:14.288Z</time></trkpt><trkpt lat="44.8031383" lon="9.1494083"><ele>647.0</ele><time>2026-04-25T16:21:15.288Z</time></trkpt><trkpt lat="44.8030633" lon="9.149315"><ele>647.0</ele><time>2026-04-25T16:21:16.287Z</time></trkpt><trkpt lat="44.8029833" lon="9.1492117"><ele>647.0</ele><time>2026-04-25T16:21:17.288Z</time></trkpt><trkpt lat="44.802905" lon="9.149105"><ele>647.0</ele><time>2026-04-25T16:21:18.288Z</time></trkpt><trkpt lat="44.80282" lon="9.1489983"><ele>647.0</ele><time>2026-04-25T16:21:19.288Z</time></trkpt><trkpt lat="44.8027383" lon="9.1489117"><ele>645.4</ele><time>2026-04-25T16:21:20.288Z</time></trkpt><trkpt lat="44.8026467" lon="9.148825"><ele>643.8000000000001</ele><time>2026-04-25T16:21:21.288Z</time></trkpt><trkpt lat="44.8025567" lon="9.14874"><ele>642.2</ele><time>2026-04-25T16:21:22.288Z</time></trkpt><trkpt lat="44.8024667" lon="9.1486617"><ele>640.6</ele><time>2026-04-25T16:21:23.288Z</time></trkpt><trkpt lat="44.8023817" lon="9.14858"><ele>639.0</ele><time>2026-04-25T16:21:24.288Z</time></trkpt><trkpt lat="44.8023083" lon="9.1484817"><ele>639.0</ele><time>2026-04-25T16:21:25.288Z</time></trkpt><trkpt lat="44.80225" lon="9.1483733"><ele>639.0</ele><time>2026-04-25T16:21:26.288Z</time></trkpt><trkpt lat="44.802205" lon="9.1482533"><ele>639.0</ele><time>2026-04-25T16:21:27.288Z</time></trkpt><trkpt lat="44.802165" lon="9.1481133"><ele>639.0</ele><time>2026-04-25T16:21:28.288Z</time></trkpt><trkpt lat="44.80212" lon="9.14797"><ele>639.0</ele><time>2026-04-25T16:21:29.288Z</time></trkpt><trkpt lat="44.80207" lon="9.1478167"><ele>638.8</ele><time>2026-04-25T16:21:30.288Z</time></trkpt><trkpt lat="44.8020167" lon="9.1476767"><ele>638.5999999999999</ele><time>2026-04-25T16:21:31.288Z</time></trkpt><trkpt lat="44.80196" lon="9.1475533"><ele>638.4</ele><time>2026-04-25T16:21:32.288Z</time></trkpt><trkpt lat="44.8019" lon="9.1474467"><ele>638.1999999999999</ele><time>2026-04-25T16:21:33.288Z</time></trkpt><trkpt lat="44.80183" lon="9.1473517"><ele>638.0</ele><time>2026-04-25T16:21:34.288Z</time></trkpt><trkpt lat="44.8017483" lon="9.147275"><ele>635.0</ele><time>2026-04-25T16:21:35.287Z</time></trkpt><trkpt lat="44.8016517" lon="9.1472233"><ele>632.0</ele><time>2026-04-25T16:21:36.288Z</time></trkpt><trkpt lat="44.80155" lon="9.1471933"><ele>629.0</ele><time>2026-04-25T16:21:37.288Z</time></trkpt><trkpt lat="44.80145" lon="9.1471783"><ele>626.0</ele><time>2026-04-25T16:21:38.288Z</time></trkpt><trkpt lat="44.8013533" lon="9.1471267"><ele>623.0</ele><time>2026-04-25T16:21:39.287Z</time></trkpt><trkpt lat="44.80128" lon="9.147045"><ele>623.0</ele><time>2026-04-25T16:21:40.288Z</time></trkpt><trkpt lat="44.8012133" lon="9.146935"><ele>623.0</ele><time>2026-04-25T16:21:41.288Z</time></trkpt><trkpt lat="44.801145" lon="9.14679"><ele>623.0</ele><time>2026-04-25T16:21:42.288Z</time></trkpt><trkpt lat="44.8010717" lon="9.14663"><ele>623.0</ele><time>2026-04-25T16:21:43.288Z</time></trkpt><trkpt lat="44.8010117" lon="9.146475"><ele>621.8</ele><time>2026-04-25T16:21:44.288Z</time></trkpt><trkpt lat="44.80095" lon="9.1463417"><ele>620.5999999999999</ele><time>2026-04-25T16:21:45.288Z</time></trkpt><trkpt lat="44.800885" lon="9.1462383"><ele>619.4000000000001</ele><time>2026-04-25T16:21:46.288Z</time></trkpt><trkpt lat="44.80081" lon="9.14617"><ele>618.2</ele><time>2026-04-25T16:21:47.288Z</time></trkpt><trkpt lat="44.8007217" lon="9.1461283"><ele>617.0</ele><time>2026-04-25T16:21:48.288Z</time></trkpt><trkpt lat="44.80062" lon="9.146105"><ele>617.0</ele><time>2026-04-25T16:21:49.288Z</time></trkpt><trkpt lat="44.80053" lon="9.14606"><ele>617.0</ele><time>2026-04-25T16:21:50.288Z</time></trkpt><trkpt lat="44.8004533" lon="9.145995"><ele>617.0</ele><time>2026-04-25T16:21:51.288Z</time></trkpt><trkpt lat="44.8004017" lon="9.14589"><ele>617.0</ele><time>2026-04-25T16:21:52.288Z</time></trkpt><trkpt lat="44.8003767" lon="9.145755"><ele>617.0</ele><time>2026-04-25T16:21:53.288Z</time></trkpt><trkpt lat="44.800385" lon="9.1455867"><ele>615.75</ele><time>2026-04-25T16:21:54.288Z</time></trkpt><trkpt lat="44.8003967" lon="9.1453917"><ele>614.5</ele><time>2026-04-25T16:21:55.288Z</time></trkpt><trkpt lat="44.800405" lon="9.1451933"><ele>613.25</ele><time>2026-04-25T16:21:56.288Z</time></trkpt><trkpt lat="44.8003917" lon="9.144995"><ele>612.0</ele><time>2026-04-25T16:21:57.288Z</time></trkpt><trkpt lat="44.8003633" lon="9.14481"><ele>612.5</ele><time>2026-04-25T16:21:58.288Z</time></trkpt><trkpt lat="44.8003333" lon="9.1446417"><ele>613.0</ele><time>2026-04-25T16:21:59.288Z</time></trkpt><trkpt lat="44.8002867" lon="9.14448"><ele>613.5</ele><time>2026-04-25T16:22:00.288Z</time></trkpt><trkpt lat="44.8002267" lon="9.1443417"><ele>614.0</ele><time>2026-04-25T16:22:01.288Z</time></trkpt><trkpt lat="44.8001483" lon="9.1442117"><ele>614.0</ele><time>2026-04-25T16:22:02.288Z</time></trkpt><trkpt lat="44.8000617" lon="9.144095"><ele>614.0</ele><time>2026-04-25T16:22:03.288Z</time></trkpt><trkpt lat="44.7999733" lon="9.1439733"><ele>614.0</ele><time>2026-04-25T16:22:04.287Z</time></trkpt><trkpt lat="44.799875" lon="9.1438533"><ele>614.0</ele><time>2026-04-25T16:22:05.288Z</time></trkpt><trkpt lat="44.79978" lon="9.1437317"><ele>611.75</ele><time>2026-04-25T16:22:06.288Z</time></trkpt><trkpt lat="44.7996933" lon="9.143605"><ele>609.5</ele><time>2026-04-25T16:22:07.288Z</time></trkpt><trkpt lat="44.7996117" lon="9.14347"><ele>607.25</ele><time>2026-04-25T16:22:08.288Z</time></trkpt><trkpt lat="44.7995317" lon="9.1433367"><ele>605.0</ele><time>2026-04-25T16:22:09.288Z</time></trkpt><trkpt lat="44.799455" lon="9.1431967"><ele>605.75</ele><time>2026-04-25T16:22:10.288Z</time></trkpt><trkpt lat="44.7994033" lon="9.1430433"><ele>606.5</ele><time>2026-04-25T16:22:11.288Z</time></trkpt><trkpt lat="44.7993567" lon="9.1428667"><ele>607.25</ele><time>2026-04-25T16:22:12.288Z</time></trkpt><trkpt lat="44.7993233" lon="9.1426917"><ele>608.0</ele><time>2026-04-25T16:22:13.288Z</time></trkpt><trkpt lat="44.7992883" lon="9.1425067"><ele>606.0</ele><time>2026-04-25T16:22:14.288Z</time></trkpt><trkpt lat="44.7992617" lon="9.1423367"><ele>604.0</ele><time>2026-04-25T16:22:15.288Z</time></trkpt><trkpt lat="44.7992333" lon="9.1421517"><ele>602.0</ele><time>2026-04-25T16:22:16.288Z</time></trkpt><trkpt lat="44.79921" lon="9.1419683"><ele>600.0</ele><time>2026-04-25T16:22:17.288Z</time></trkpt><trkpt lat="44.7991967" lon="9.1417717"><ele>600.0</ele><time>2026-04-25T16:22:18.288Z</time></trkpt><trkpt lat="44.79919" lon="9.14157"><ele>600.0</ele><time>2026-04-25T16:22:19.288Z</time></trkpt><trkpt lat="44.7991967" lon="9.1413583"><ele>600.0</ele><time>2026-04-25T16:22:20.288Z</time></trkpt><trkpt lat="44.799215" lon="9.141185"><ele>600.0</ele><time>2026-04-25T16:22:21.288Z</time></trkpt><trkpt lat="44.7992433" lon="9.141005"><ele>599.0</ele><time>2026-04-25T16:22:22.288Z</time></trkpt><trkpt lat="44.7992717" lon="9.1408217"><ele>598.0</ele><time>2026-04-25T16:22:23.288Z</time></trkpt><trkpt lat="44.79929" lon="9.1406383"><ele>597.0</ele><time>2026-04-25T16:22:24.288Z</time></trkpt><trkpt lat="44.7992983" lon="9.140475"><ele>596.0</ele><time>2026-04-25T16:22:25.288Z</time></trkpt><trkpt lat="44.7992983" lon="9.140325"><ele>594.75</ele><time>2026-04-25T16:22:26.288Z</time></trkpt><trkpt lat="44.7992783" lon="9.140185"><ele>593.5</ele><time>2026-04-25T16:22:27.288Z</time></trkpt><trkpt lat="44.7992317" lon="9.1400383"><ele>592.25</ele><time>2026-04-25T16:22:28.287Z</time></trkpt><trkpt lat="44.79918" lon="9.1398817"><ele>591.0</ele><time>2026-04-25T16:22:29.288Z</time></trkpt><trkpt lat="44.799135" lon="9.1397267"><ele>588.75</ele><time>2026-04-25T16:22:30.287Z</time></trkpt><trkpt lat="44.7991067" lon="9.1395733"><ele>586.5</ele><time>2026-04-25T16:22:31.288Z</time></trkpt><trkpt lat="44.7990817" lon="9.1394033"><ele>584.25</ele><time>2026-04-25T16:22:32.288Z</time></trkpt><trkpt lat="44.7990817" lon="9.13924"><ele>582.0</ele><time>2026-04-25T16:22:33.288Z</time></trkpt><trkpt lat="44.7990933" lon="9.13906"><ele>580.0</ele><time>2026-04-25T16:22:34.288Z</time></trkpt><trkpt lat="44.7991033" lon="9.1388483"><ele>578.0</ele><time>2026-04-25T16:22:35.288Z</time></trkpt><trkpt lat="44.7991167" lon="9.1386433"><ele>576.0</ele><time>2026-04-25T16:22:36.288Z</time></trkpt><trkpt lat="44.79913" lon="9.1384217"><ele>575.3333333333334</ele><time>2026-04-25T16:22:37.288Z</time></trkpt><trkpt lat="44.7991417" lon="9.1381967"><ele>574.6666666666667</ele><time>2026-04-25T16:22:38.288Z</time></trkpt><trkpt lat="44.79915" lon="9.13797"><ele>574.0</ele><time>2026-04-25T16:22:39.288Z</time></trkpt><trkpt lat="44.799155" lon="9.137735"><ele>574.0</ele><time>2026-04-25T16:22:40.287Z</time></trkpt><trkpt lat="44.799165" lon="9.1375183"><ele>574.0</ele><time>2026-04-25T16:22:41.288Z</time></trkpt><trkpt lat="44.7991817" lon="9.1372983"><ele>574.0</ele><time>2026-04-25T16:22:42.288Z</time></trkpt><trkpt lat="44.7991883" lon="9.1371067"><ele>574.0</ele><time>2026-04-25T16:22:43.288Z</time></trkpt><trkpt lat="44.7991967" lon="9.1369217"><ele>573.5</ele><time>2026-04-25T16:22:44.288Z</time></trkpt><trkpt lat="44.7992117" lon="9.13674"><ele>573.0</ele><time>2026-04-25T16:22:45.288Z</time></trkpt><trkpt lat="44.7992267" lon="9.136535"><ele>572.5</ele><time>2026-04-25T16:22:46.288Z</time></trkpt><trkpt lat="44.7992333" lon="9.136335"><ele>572.0</ele><time>2026-04-25T16:22:47.288Z</time></trkpt><trkpt lat="44.7992183" lon="9.1361417"><ele>570.75</ele><time>2026-04-25T16:22:48.288Z</time></trkpt><trkpt lat="44.7991917" lon="9.1359333"><ele>569.5</ele><time>2026-04-25T16:22:49.288Z</time></trkpt><trkpt lat="44.7991667" lon="9.1357283"><ele>568.25</ele><time>2026-04-25T16:22:50.288Z</time></trkpt><trkpt lat="44.7991367" lon="9.1355233"><ele>567.0</ele><time>2026-04-25T16:22:51.288Z</time></trkpt><trkpt lat="44.7991183" lon="9.1353433"><ele>565.0</ele><time>2026-04-25T16:22:52.288Z</time></trkpt><trkpt lat="44.7991167" lon="9.1351533"><ele>563.0</ele><time>2026-04-25T16:22:53.288Z</time></trkpt><trkpt lat="44.79914" lon="9.134985"><ele>561.0</ele><time>2026-04-25T16:22:54.288Z</time></trkpt><trkpt lat="44.7991667" lon="9.1347833"><ele>559.0</ele><time>2026-04-25T16:22:55.288Z</time></trkpt><trkpt lat="44.79919" lon="9.1345733"><ele>559.0</ele><time>2026-04-25T16:22:56.288Z</time></trkpt><trkpt lat="44.7992083" lon="9.13436"><ele>559.0</ele><time>2026-04-25T16:22:57.288Z</time></trkpt><trkpt lat="44.79923" lon="9.1341383"><ele>559.0</ele><time>2026-04-25T16:22:58.288Z</time></trkpt><trkpt lat="44.79925" lon="9.1339233"><ele>559.0</ele><time>2026-04-25T16:22:59.288Z</time></trkpt><trkpt lat="44.799255" lon="9.1337167"><ele>559.0</ele><time>2026-04-25T16:23:00.288Z</time></trkpt><trkpt lat="44.79926" lon="9.1334983"><ele>559.0</ele><time>2026-04-25T16:23:01.288Z</time></trkpt><trkpt lat="44.7992667" lon="9.1332767"><ele>558.0</ele><time>2026-04-25T16:23:02.288Z</time></trkpt><trkpt lat="44.7992767" lon="9.1330567"><ele>557.0</ele><time>2026-04-25T16:23:03.288Z</time></trkpt><trkpt lat="44.79929" lon="9.1328233"><ele>556.0</ele><time>2026-04-25T16:23:04.288Z</time></trkpt><trkpt lat="44.7992983" lon="9.1326017"><ele>555.5</ele><time>2026-04-25T16:23:05.288Z</time></trkpt><trkpt lat="44.7993033" lon="9.132385"><ele>555.0</ele><time>2026-04-25T16:23:06.288Z</time></trkpt><trkpt lat="44.7993083" lon="9.13218"><ele>554.5</ele><time>2026-04-25T16:23:07.288Z</time></trkpt><trkpt lat="44.7993133" lon="9.1319867"><ele>554.0</ele><time>2026-04-25T16:23:08.287Z</time></trkpt><trkpt lat="44.7993217" lon="9.1318017"><ele>554.0</ele><time>2026-04-25T16:23:09.288Z</time></trkpt><trkpt lat="44.799325" lon="9.1316117"><ele>554.0</ele><time>2026-04-25T16:23:10.288Z</time></trkpt><trkpt lat="44.799335" lon="9.1314367"><ele>554.0</ele><time>2026-04-25T16:23:11.288Z</time></trkpt><trkpt lat="44.79937" lon="9.131265"><ele>554.0</ele><time>2026-04-25T16:23:12.288Z</time></trkpt><trkpt lat="44.7994183" lon="9.1311"><ele>548.0</ele><time>2026-04-25T16:23:13.288Z</time></trkpt><trkpt lat="44.7994533" lon="9.1309467"><ele>542.0</ele><time>2026-04-25T16:23:14.288Z</time></trkpt><trkpt lat="44.799475" lon="9.1307833"><ele>536.0</ele><time>2026-04-25T16:23:15.288Z</time></trkpt><trkpt lat="44.7994883" lon="9.13061"><ele>530.0</ele><time>2026-04-25T16:23:16.288Z</time></trkpt><trkpt lat="44.7994983" lon="9.13042"><ele>529.75</ele><time>2026-04-25T16:23:17.288Z</time></trkpt><trkpt lat="44.79951" lon="9.130225"><ele>529.5</ele><time>2026-04-25T16:23:18.288Z</time></trkpt><trkpt lat="44.7995183" lon="9.1300433"><ele>529.25</ele><time>2026-04-25T16:23:19.288Z</time></trkpt><trkpt lat="44.7995267" lon="9.129875"><ele>529.0</ele><time>2026-04-25T16:23:20.288Z</time></trkpt><trkpt lat="44.7995317" lon="9.1297167"><ele>529.0</ele><time>2026-04-25T16:23:21.288Z</time></trkpt><trkpt lat="44.7995517" lon="9.1295533"><ele>529.0</ele><time>2026-04-25T16:23:22.288Z</time></trkpt><trkpt lat="44.7995783" lon="9.1293783"><ele>529.0</ele><time>2026-04-25T16:23:23.288Z</time></trkpt><trkpt lat="44.7996017" lon="9.1292083"><ele>529.0</ele><time>2026-04-25T16:23:24.288Z</time></trkpt><trkpt lat="44.7996267" lon="9.1290317"><ele>529.75</ele><time>2026-04-25T16:23:25.288Z</time></trkpt><trkpt lat="44.79965" lon="9.1288433"><ele>530.5</ele><time>2026-04-25T16:23:26.288Z</time></trkpt><trkpt lat="44.799675" lon="9.1286633"><ele>531.25</ele><time>2026-04-25T16:23:27.288Z</time></trkpt><trkpt lat="44.7997017" lon="9.1284933"><ele>532.0</ele><time>2026-04-25T16:23:28.288Z</time></trkpt><trkpt lat="44.7997467" lon="9.128325"><ele>532.75</ele><time>2026-04-25T16:23:29.288Z</time></trkpt><trkpt lat="44.7997983" lon="9.1281583"><ele>533.5</ele><time>2026-04-25T16:23:30.288Z</time></trkpt><trkpt lat="44.7998517" lon="9.1280083"><ele>534.25</ele><time>2026-04-25T16:23:31.288Z</time></trkpt><trkpt lat="44.7998967" lon="9.1278667"><ele>535.0</ele><time>2026-04-25T16:23:32.287Z</time></trkpt><trkpt lat="44.7999317" lon="9.1277317"><ele>535.0</ele><time>2026-04-25T16:23:33.288Z</time></trkpt><trkpt lat="44.7999533" lon="9.1275817"><ele>535.0</ele><time>2026-04-25T16:23:34.288Z</time></trkpt><trkpt lat="44.7999617" lon="9.1274417"><ele>535.0</ele><time>2026-04-25T16:23:35.288Z</time></trkpt><trkpt lat="44.79994" lon="9.1273183"><ele>535.0</ele><time>2026-04-25T16:23:36.288Z</time></trkpt><trkpt lat="44.7999017" lon="9.127175"><ele>535.0</ele><time>2026-04-25T16:23:37.288Z</time></trkpt><trkpt lat="44.799865" lon="9.12705"><ele>534.2</ele><time>2026-04-25T16:23:38.287Z</time></trkpt><trkpt lat="44.7998233" lon="9.1269117"><ele>533.4</ele><time>2026-04-25T16:23:39.288Z</time></trkpt><trkpt lat="44.7998" lon="9.1267667"><ele>532.6</ele><time>2026-04-25T16:23:40.288Z</time></trkpt><trkpt lat="44.799785" lon="9.1266083"><ele>531.8</ele><time>2026-04-25T16:23:41.288Z</time></trkpt><trkpt lat="44.7997783" lon="9.1264467"><ele>531.0</ele><time>2026-04-25T16:23:42.288Z</time></trkpt><trkpt lat="44.7997767" lon="9.126285"><ele>531.0</ele><time>2026-04-25T16:23:43.288Z</time></trkpt><trkpt lat="44.7997817" lon="9.126115"><ele>531.0</ele><time>2026-04-25T16:23:44.288Z</time></trkpt><trkpt lat="44.7997917" lon="9.1259467"><ele>531.0</ele><time>2026-04-25T16:23:45.288Z</time></trkpt><trkpt lat="44.7998117" lon="9.125785"><ele>531.0</ele><time>2026-04-25T16:23:46.288Z</time></trkpt><trkpt lat="44.79984" lon="9.1256233"><ele>531.75</ele><time>2026-04-25T16:23:47.288Z</time></trkpt><trkpt lat="44.7998767" lon="9.1254617"><ele>532.5</ele><time>2026-04-25T16:23:48.288Z</time></trkpt><trkpt lat="44.7999233" lon="9.1252933"><ele>533.25</ele><time>2026-04-25T16:23:49.288Z</time></trkpt><trkpt lat="44.7999733" lon="9.12511"><ele>534.0</ele><time>2026-04-25T16:23:50.288Z</time></trkpt><trkpt lat="44.8000333" lon="9.1249367"><ele>535.75</ele><time>2026-04-25T16:23:51.288Z</time></trkpt><trkpt lat="44.8000917" lon="9.1247633"><ele>537.5</ele><time>2026-04-25T16:23:52.288Z</time></trkpt><trkpt lat="44.8001483" lon="9.1245783"><ele>539.25</ele><time>2026-04-25T16:23:53.288Z</time></trkpt><trkpt lat="44.8002083" lon="9.1244133"><ele>541.0</ele><time>2026-04-25T16:23:54.288Z</time></trkpt><trkpt lat="44.800265" lon="9.1242533"><ele>537.6</ele><time>2026-04-25T16:23:55.288Z</time></trkpt><trkpt lat="44.800335" lon="9.1241367"><ele>534.2</ele><time>2026-04-25T16:23:56.288Z</time></trkpt><trkpt lat="44.80041" lon="9.12404"><ele>530.8</ele><time>2026-04-25T16:23:57.288Z</time></trkpt><trkpt lat="44.800485" lon="9.123955"><ele>527.4</ele><time>2026-04-25T16:23:58.288Z</time></trkpt><trkpt lat="44.8005517" lon="9.1238817"><ele>524.0</ele><time>2026-04-25T16:23:59.288Z</time></trkpt><trkpt lat="44.8006033" lon="9.1237833"><ele>524.0</ele><time>2026-04-25T16:24:00.288Z</time></trkpt><trkpt lat="44.8006417" lon="9.1236683"><ele>524.0</ele><time>2026-04-25T16:24:01.288Z</time></trkpt><trkpt lat="44.8006583" lon="9.1235367"><ele>524.0</ele><time>2026-04-25T16:24:02.288Z</time></trkpt><trkpt lat="44.8006633" lon="9.12341"><ele>524.0</ele><time>2026-04-25T16:24:03.287Z</time></trkpt><trkpt lat="44.800655" lon="9.1232883"><ele>524.0</ele><time>2026-04-25T16:24:04.287Z</time></trkpt><trkpt lat="44.8006433" lon="9.1231683"><ele>524.0</ele><time>2026-04-25T16:24:05.288Z</time></trkpt><trkpt lat="44.800645" lon="9.12305"><ele>524.3333333333333</ele><time>2026-04-25T16:24:06.288Z</time></trkpt><trkpt lat="44.8006567" lon="9.1229367"><ele>524.6666666666666</ele><time>2026-04-25T16:24:07.288Z</time></trkpt><trkpt lat="44.80069" lon="9.1228333"><ele>525.0</ele><time>2026-04-25T16:24:08.288Z</time></trkpt><trkpt lat="44.8007383" lon="9.1227233"><ele>525.3333333333334</ele><time>2026-04-25T16:24:09.288Z</time></trkpt><trkpt lat="44.8007883" lon="9.1226183"><ele>525.6666666666667</ele><time>2026-04-25T16:24:10.288Z</time></trkpt><trkpt lat="44.8008383" lon="9.12251"><ele>526.0</ele><time>2026-04-25T16:24:11.288Z</time></trkpt><trkpt lat="44.8008783" lon="9.1223917"><ele>523.4</ele><time>2026-04-25T16:24:12.288Z</time></trkpt><trkpt lat="44.8009" lon="9.1222683"><ele>520.8</ele><time>2026-04-25T16:24:13.288Z</time></trkpt><trkpt lat="44.8009033" lon="9.1221633"><ele>518.1999999999999</ele><time>2026-04-25T16:24:14.288Z</time></trkpt><trkpt lat="44.800875" lon="9.1220383"><ele>515.6</ele><time>2026-04-25T16:24:15.287Z</time></trkpt><trkpt lat="44.800815" lon="9.1219"><ele>513.0</ele><time>2026-04-25T16:24:16.288Z</time></trkpt><trkpt lat="44.8007267" lon="9.1217533"><ele>513.0</ele><time>2026-04-25T16:24:17.287Z</time></trkpt><trkpt lat="44.8006367" lon="9.1216033"><ele>513.0</ele><time>2026-04-25T16:24:18.288Z</time></trkpt><trkpt lat="44.800565" lon="9.121445"><ele>513.0</ele><time>2026-04-25T16:24:19.288Z</time></trkpt><trkpt lat="44.8005117" lon="9.12132"><ele>513.0</ele><time>2026-04-25T16:24:20.288Z</time></trkpt><trkpt lat="44.800435" lon="9.121215"><ele>510.5</ele><time>2026-04-25T16:24:21.288Z</time></trkpt><trkpt lat="44.8003467" lon="9.1211433"><ele>508.0</ele><time>2026-04-25T16:24:22.288Z</time></trkpt><trkpt lat="44.8002317" lon="9.121095"><ele>505.5</ele><time>2026-04-25T16:24:23.288Z</time></trkpt><trkpt lat="44.8001" lon="9.1210583"><ele>503.0</ele><time>2026-04-25T16:24:24.288Z</time></trkpt><trkpt lat="44.7999683" lon="9.1209983"><ele>503.0</ele><time>2026-04-25T16:24:25.288Z</time></trkpt><trkpt lat="44.7998433" lon="9.1209533"><ele>503.0</ele><time>2026-04-25T16:24:26.288Z</time></trkpt><trkpt lat="44.799725" lon="9.12091"><ele>503.0</ele><time>2026-04-25T16:24:27.288Z</time></trkpt><trkpt lat="44.7996117" lon="9.1208517"><ele>503.0</ele><time>2026-04-25T16:24:28.288Z</time></trkpt><trkpt lat="44.799505" lon="9.1207917"><ele>502.2</ele><time>2026-04-25T16:24:29.287Z</time></trkpt><trkpt lat="44.7994133" lon="9.120715"><ele>501.4</ele><time>2026-04-25T16:24:30.288Z</time></trkpt><trkpt lat="44.79935" lon="9.120625"><ele>500.59999999999997</ele><time>2026-04-25T16:24:31.288Z</time></trkpt><trkpt lat="44.799305" lon="9.1205183"><ele>499.79999999999995</ele><time>2026-04-25T16:24:32.288Z</time></trkpt><trkpt lat="44.7992767" lon="9.1203983"><ele>499.0</ele><time>2026-04-25T16:24:33.288Z</time></trkpt><trkpt lat="44.7992567" lon="9.1202617"><ele>499.0</ele><time>2026-04-25T16:24:34.288Z</time></trkpt><trkpt lat="44.7992183" lon="9.1201283"><ele>499.0</ele><time>2026-04-25T16:24:35.288Z</time></trkpt><trkpt lat="44.7991583" lon="9.119995"><ele>499.0</ele><time>2026-04-25T16:24:36.288Z</time></trkpt><trkpt lat="44.7990817" lon="9.1198717"><ele>499.0</ele><time>2026-04-25T16:24:37.288Z</time></trkpt><trkpt lat="44.799" lon="9.1197533"><ele>499.0</ele><time>2026-04-25T16:24:38.288Z</time></trkpt><trkpt lat="44.7989233" lon="9.1196483"><ele>497.79999999999995</ele><time>2026-04-25T16:24:39.288Z</time></trkpt><trkpt lat="44.7988467" lon="9.1195633"><ele>496.59999999999997</ele><time>2026-04-25T16:24:40.288Z</time></trkpt><trkpt lat="44.7987567" lon="9.1195017"><ele>495.4</ele><time>2026-04-25T16:24:41.287Z</time></trkpt><trkpt lat="44.7986633" lon="9.1194633"><ele>494.2</ele><time>2026-04-25T16:24:42.288Z</time></trkpt><trkpt lat="44.7985617" lon="9.119445"><ele>493.0</ele><time>2026-04-25T16:24:43.288Z</time></trkpt><trkpt lat="44.798475" lon="9.1194283"><ele>493.0</ele><time>2026-04-25T16:24:44.288Z</time></trkpt><trkpt lat="44.7984033" lon="9.119395"><ele>492.99999999999994</ele><time>2026-04-25T16:24:45.288Z</time></trkpt><trkpt lat="44.7983283" lon="9.119235"><ele>492.99999999999994</ele><time>2026-04-25T16:24:47.288Z</time></trkpt><trkpt lat="44.7983017" lon="9.119125"><ele>493.0</ele><time>2026-04-25T16:24:48.288Z</time></trkpt><trkpt lat="44.798265" lon="9.1190233"><ele>493.0</ele><time>2026-04-25T16:24:49.288Z</time></trkpt><trkpt lat="44.7982167" lon="9.1189317"><ele>490.1428571428571</ele><time>2026-04-25T16:24:50.288Z</time></trkpt><trkpt lat="44.79816" lon="9.1188717"><ele>487.28571428571433</ele><time>2026-04-25T16:24:51.288Z</time></trkpt><trkpt lat="44.7980933" lon="9.1188567"><ele>484.42857142857144</ele><time>2026-04-25T16:24:52.288Z</time></trkpt><trkpt lat="44.798025" lon="9.1188633"><ele>481.57142857142856</ele><time>2026-04-25T16:24:53.288Z</time></trkpt><trkpt lat="44.7979367" lon="9.1189217"><ele>478.71428571428567</ele><time>2026-04-25T16:24:54.287Z</time></trkpt><trkpt lat="44.7978633" lon="9.11895"><ele>475.8571428571429</ele><time>2026-04-25T16:24:55.288Z</time></trkpt><trkpt lat="44.7978" lon="9.1189233"><ele>473.0</ele><time>2026-04-25T16:24:56.288Z</time></trkpt><trkpt lat="44.7977067" lon="9.11878"><ele>474.4</ele><time>2026-04-25T16:24:58.288Z</time></trkpt><trkpt lat="44.7976683" lon="9.1186617"><ele>475.79999999999995</ele><time>2026-04-25T16:24:59.288Z</time></trkpt><trkpt lat="44.79764" lon="9.118535"><ele>477.2</ele><time>2026-04-25T16:25:00.287Z</time></trkpt><trkpt lat="44.79758" lon="9.118415"><ele>478.6</ele><time>2026-04-25T16:25:01.288Z</time></trkpt><trkpt lat="44.79752" lon="9.118315"><ele>480.0</ele><time>2026-04-25T16:25:02.288Z</time></trkpt><trkpt lat="44.79743" lon="9.118255"><ele>474.25</ele><time>2026-04-25T16:25:03.288Z</time></trkpt><trkpt lat="44.7973217" lon="9.118195"><ele>468.5</ele><time>2026-04-25T16:25:04.288Z</time></trkpt><trkpt lat="44.7972067" lon="9.1181267"><ele>462.75</ele><time>2026-04-25T16:25:05.288Z</time></trkpt><trkpt lat="44.79708" lon="9.1180533"><ele>457.0</ele><time>2026-04-25T16:25:06.288Z</time></trkpt><trkpt lat="44.796955" lon="9.1179917"><ele>459.75</ele><time>2026-04-25T16:25:07.288Z</time></trkpt><trkpt lat="44.7968283" lon="9.1178967"><ele>462.5</ele><time>2026-04-25T16:25:08.288Z</time></trkpt><trkpt lat="44.7967067" lon="9.1177817"><ele>465.25</ele><time>2026-04-25T16:25:09.288Z</time></trkpt><trkpt lat="44.7965867" lon="9.1176633"><ele>468.0</ele><time>2026-04-25T16:25:10.287Z</time></trkpt><trkpt lat="44.7964733" lon="9.1175383"><ele>468.0</ele><time>2026-04-25T16:25:11.288Z</time></trkpt><trkpt lat="44.7963583" lon="9.1174183"><ele>468.0</ele><time>2026-04-25T16:25:12.288Z</time></trkpt><trkpt lat="44.7962367" lon="9.1172983"><ele>468.0</ele><time>2026-04-25T16:25:13.288Z</time></trkpt><trkpt lat="44.7961133" lon="9.1171767"><ele>468.0</ele><time>2026-04-25T16:25:14.288Z</time></trkpt><trkpt lat="44.7960033" lon="9.117065"><ele>466.59999999999997</ele><time>2026-04-25T16:25:15.288Z</time></trkpt><trkpt lat="44.795905" lon="9.1169583"><ele>465.19999999999993</ele><time>2026-04-25T16:25:16.288Z</time></trkpt><trkpt lat="44.7958217" lon="9.1168567"><ele>463.8</ele><time>2026-04-25T16:25:17.288Z</time></trkpt><trkpt lat="44.795775" lon="9.1167367"><ele>462.4</ele><time>2026-04-25T16:25:18.288Z</time></trkpt><trkpt lat="44.7957333" lon="9.1166117"><ele>461.0</ele><time>2026-04-25T16:25:19.287Z</time></trkpt><trkpt lat="44.79571" lon="9.1164783"><ele>458.0</ele><time>2026-04-25T16:25:20.288Z</time></trkpt><trkpt lat="44.7956717" lon="9.1163483"><ele>455.0</ele><time>2026-04-25T16:25:21.288Z</time></trkpt><trkpt lat="44.7956017" lon="9.116225"><ele>452.0</ele><time>2026-04-25T16:25:22.288Z</time></trkpt><trkpt lat="44.7955167" lon="9.1161617"><ele>449.0</ele><time>2026-04-25T16:25:23.288Z</time></trkpt><trkpt lat="44.7954317" lon="9.1161233"><ele>446.0</ele><time>2026-04-25T16:25:24.288Z</time></trkpt><trkpt lat="44.79535" lon="9.1161183"><ele>446.0</ele><time>2026-04-25T16:25:25.288Z</time></trkpt><trkpt lat="44.7952767" lon="9.1161483"><ele>446.0</ele><time>2026-04-25T16:25:26.288Z</time></trkpt><trkpt lat="44.7952033" lon="9.1162117"><ele>446.0</ele><time>2026-04-25T16:25:27.288Z</time></trkpt><trkpt lat="44.7951267" lon="9.1163083"><ele>446.0</ele><time>2026-04-25T16:25:28.288Z</time></trkpt><trkpt lat="44.7950283" lon="9.1164433"><ele>446.0</ele><time>2026-04-25T16:25:29.288Z</time></trkpt><trkpt lat="44.7949233" lon="9.1165767"><ele>448.0</ele><time>2026-04-25T16:25:30.287Z</time></trkpt><trkpt lat="44.79482" lon="9.11671"><ele>450.0</ele><time>2026-04-25T16:25:31.287Z</time></trkpt><trkpt lat="44.7947167" lon="9.1168217"><ele>452.0</ele><time>2026-04-25T16:25:32.288Z</time></trkpt><trkpt lat="44.7946167" lon="9.116905"><ele>454.0</ele><time>2026-04-25T16:25:33.288Z</time></trkpt><trkpt lat="44.7945167" lon="9.117"><ele>454.0</ele><time>2026-04-25T16:25:34.288Z</time></trkpt><trkpt lat="44.7944233" lon="9.1170633"><ele>454.0</ele><time>2026-04-25T16:25:35.288Z</time></trkpt><trkpt lat="44.7943333" lon="9.1171067"><ele>454.0</ele><time>2026-04-25T16:25:36.288Z</time></trkpt><trkpt lat="44.7942383" lon="9.1171133"><ele>454.0</ele><time>2026-04-25T16:25:37.288Z</time></trkpt><trkpt lat="44.7941433" lon="9.1170733"><ele>454.0</ele><time>2026-04-25T16:25:38.288Z</time></trkpt><trkpt lat="44.7940517" lon="9.117025"><ele>451.1666666666667</ele><time>2026-04-25T16:25:39.288Z</time></trkpt><trkpt lat="44.7939833" lon="9.1169417"><ele>448.33333333333337</ele><time>2026-04-25T16:25:40.288Z</time></trkpt><trkpt lat="44.7939267" lon="9.116835"><ele>445.5</ele><time>2026-04-25T16:25:41.288Z</time></trkpt><trkpt lat="44.7938933" lon="9.1167267"><ele>442.66666666666663</ele><time>2026-04-25T16:25:42.288Z</time></trkpt><trkpt lat="44.7938917" lon="9.11661"><ele>439.8333333333333</ele><time>2026-04-25T16:25:43.288Z</time></trkpt><trkpt lat="44.793925" lon="9.1165"><ele>437.0</ele><time>2026-04-25T16:25:44.288Z</time></trkpt><trkpt lat="44.7939783" lon="9.1164017"><ele>437.3333333333333</ele><time>2026-04-25T16:25:45.288Z</time></trkpt><trkpt lat="44.7940567" lon="9.1163233"><ele>437.66666666666663</ele><time>2026-04-25T16:25:46.288Z</time></trkpt><trkpt lat="44.794145" lon="9.1162567"><ele>438.0</ele><time>2026-04-25T16:25:47.288Z</time></trkpt><trkpt lat="44.7942367" lon="9.1162067"><ele>438.33333333333337</ele><time>2026-04-25T16:25:48.288Z</time></trkpt><trkpt lat="44.7943" lon="9.1161417"><ele>438.6666666666667</ele><time>2026-04-25T16:25:49.288Z</time></trkpt><trkpt lat="44.7943517" lon="9.1160733"><ele>439.0</ele><time>2026-04-25T16:25:50.287Z</time></trkpt><trkpt lat="44.794375" lon="9.11599"><ele>439.00000000000006</ele><time>2026-04-25T16:25:51.288Z</time></trkpt><trkpt lat="44.7943517" lon="9.1158817"><ele>439.0</ele><time>2026-04-25T16:25:52.288Z</time></trkpt><trkpt lat="44.7942917" lon="9.115775"><ele>439.0</ele><time>2026-04-25T16:25:53.288Z</time></trkpt><trkpt lat="44.7942417" lon="9.1156567"><ele>439.0</ele><time>2026-04-25T16:25:54.288Z</time></trkpt><trkpt lat="44.7941983" lon="9.1155417"><ele>439.00000000000006</ele><time>2026-04-25T16:25:55.288Z</time></trkpt><trkpt lat="44.79415" lon="9.1154717"><ele>439.0</ele><time>2026-04-25T16:25:56.288Z</time></trkpt><trkpt lat="44.794115" lon="9.1153783"><ele>435.79999999999995</ele><time>2026-04-25T16:25:57.288Z</time></trkpt><trkpt lat="44.7940483" lon="9.115325"><ele>432.59999999999997</ele><time>2026-04-25T16:25:59.288Z</time></trkpt><trkpt lat="44.79397" lon="9.1153967"><ele>429.4</ele><time>2026-04-25T16:26:02.288Z</time></trkpt><trkpt lat="44.79387" lon="9.1155067"><ele>426.2</ele><time>2026-04-25T16:26:04.288Z</time></trkpt><trkpt lat="44.7937967" lon="9.11559"><ele>423.0</ele><time>2026-04-25T16:26:05.288Z</time></trkpt><trkpt lat="44.793715" lon="9.1156833"><ele>424.5</ele><time>2026-04-25T16:26:06.288Z</time></trkpt><trkpt lat="44.793625" lon="9.1157783"><ele>426.0</ele><time>2026-04-25T16:26:07.288Z</time></trkpt><trkpt lat="44.793525" lon="9.1158783"><ele>427.5</ele><time>2026-04-25T16:26:08.288Z</time></trkpt><trkpt lat="44.7934167" lon="9.1159883"><ele>429.0</ele><time>2026-04-25T16:26:09.288Z</time></trkpt><trkpt lat="44.793305" lon="9.116095"><ele>429.0</ele><time>2026-04-25T16:26:10.288Z</time></trkpt><trkpt lat="44.7931867" lon="9.11621"><ele>429.0</ele><time>2026-04-25T16:26:11.288Z</time></trkpt><trkpt lat="44.7930717" lon="9.116335"><ele>429.0</ele><time>2026-04-25T16:26:12.288Z</time></trkpt><trkpt lat="44.7929417" lon="9.1164817"><ele>429.0</ele><time>2026-04-25T16:26:13.288Z</time></trkpt><trkpt lat="44.792815" lon="9.116625"><ele>429.0</ele><time>2026-04-25T16:26:14.288Z</time></trkpt><trkpt lat="44.7926867" lon="9.1167667"><ele>429.0</ele><time>2026-04-25T16:26:15.288Z</time></trkpt><trkpt lat="44.792575" lon="9.1168967"><ele>429.0</ele><time>2026-04-25T16:26:16.288Z</time></trkpt><trkpt lat="44.7924683" lon="9.1170283"><ele>429.0</ele><time>2026-04-25T16:26:17.288Z</time></trkpt><trkpt lat="44.7923633" lon="9.11714"><ele>429.0</ele><time>2026-04-25T16:26:18.288Z</time></trkpt><trkpt lat="44.79228" lon="9.11729"><ele>429.0</ele><time>2026-04-25T16:26:19.288Z</time></trkpt><trkpt lat="44.7922" lon="9.1174483"><ele>428.5</ele><time>2026-04-25T16:26:20.288Z</time></trkpt><trkpt lat="44.792115" lon="9.117615"><ele>428.0</ele><time>2026-04-25T16:26:21.288Z</time></trkpt><trkpt lat="44.7920183" lon="9.1177767"><ele>427.5</ele><time>2026-04-25T16:26:22.288Z</time></trkpt><trkpt lat="44.7919167" lon="9.1179317"><ele>427.0</ele><time>2026-04-25T16:26:23.288Z</time></trkpt><trkpt lat="44.7918017" lon="9.1180833"><ele>427.0</ele><time>2026-04-25T16:26:24.288Z</time></trkpt><trkpt lat="44.791675" lon="9.1182333"><ele>427.0</ele><time>2026-04-25T16:26:25.288Z</time></trkpt><trkpt lat="44.7915533" lon="9.1183717"><ele>427.0</ele><time>2026-04-25T16:26:26.288Z</time></trkpt><trkpt lat="44.791435" lon="9.1184817"><ele>426.5</ele><time>2026-04-25T16:26:27.288Z</time></trkpt><trkpt lat="44.791325" lon="9.118605"><ele>426.0</ele><time>2026-04-25T16:26:28.288Z</time></trkpt><trkpt lat="44.7912133" lon="9.1187333"><ele>425.5</ele><time>2026-04-25T16:26:29.288Z</time></trkpt><trkpt lat="44.7911083" lon="9.1188733"><ele>425.0</ele><time>2026-04-25T16:26:30.288Z</time></trkpt><trkpt lat="44.7910067" lon="9.1190383"><ele>425.0</ele><time>2026-04-25T16:26:31.288Z</time></trkpt><trkpt lat="44.790915" lon="9.1192183"><ele>425.0</ele><time>2026-04-25T16:26:32.288Z</time></trkpt><trkpt lat="44.7908367" lon="9.1194083"><ele>425.0</ele><time>2026-04-25T16:26:33.288Z</time></trkpt><trkpt lat="44.79076" lon="9.1195983"><ele>425.0</ele><time>2026-04-25T16:26:34.288Z</time></trkpt><trkpt lat="44.7906867" lon="9.119795"><ele>425.0</ele><time>2026-04-25T16:26:35.287Z</time></trkpt><trkpt lat="44.79062" lon="9.1200017"><ele>425.0</ele><time>2026-04-25T16:26:36.288Z</time></trkpt><trkpt lat="44.790555" lon="9.1202217"><ele>426.0</ele><time>2026-04-25T16:26:37.288Z</time></trkpt><trkpt lat="44.7905017" lon="9.1204567"><ele>427.0</ele><time>2026-04-25T16:26:38.288Z</time></trkpt><trkpt lat="44.7904533" lon="9.1207033"><ele>428.0</ele><time>2026-04-25T16:26:39.288Z</time></trkpt><trkpt lat="44.7904133" lon="9.120965"><ele>428.66666666666663</ele><time>2026-04-25T16:26:40.288Z</time></trkpt><trkpt lat="44.7904017" lon="9.121225"><ele>429.33333333333337</ele><time>2026-04-25T16:26:41.288Z</time></trkpt><trkpt lat="44.7903933" lon="9.12149"><ele>430.0</ele><time>2026-04-25T16:26:42.288Z</time></trkpt><trkpt lat="44.7904" lon="9.1217733"><ele>430.0</ele><time>2026-04-25T16:26:43.288Z</time></trkpt><trkpt lat="44.7904033" lon="9.1220483"><ele>430.0</ele><time>2026-04-25T16:26:44.288Z</time></trkpt><trkpt lat="44.7904217" lon="9.1223167"><ele>430.0</ele><time>2026-04-25T16:26:45.288Z</time></trkpt><trkpt lat="44.7904483" lon="9.1225817"><ele>430.0</ele><time>2026-04-25T16:26:46.288Z</time></trkpt><trkpt lat="44.7904817" lon="9.1228417"><ele>430.0</ele><time>2026-04-25T16:26:47.288Z</time></trkpt><trkpt lat="44.790515" lon="9.123095"><ele>430.0</ele><time>2026-04-25T16:26:48.288Z</time></trkpt><trkpt lat="44.7905467" lon="9.1233417"><ele>433.0</ele><time>2026-04-25T16:26:49.288Z</time></trkpt><trkpt lat="44.7905667" lon="9.1235933"><ele>436.0</ele><time>2026-04-25T16:26:50.288Z</time></trkpt><trkpt lat="44.7905817" lon="9.1238467"><ele>439.0</ele><time>2026-04-25T16:26:51.288Z</time></trkpt><trkpt lat="44.7905967" lon="9.12411"><ele>440.6666666666667</ele><time>2026-04-25T16:26:52.288Z</time></trkpt><trkpt lat="44.7906133" lon="9.1243567"><ele>442.33333333333337</ele><time>2026-04-25T16:26:53.288Z</time></trkpt><trkpt lat="44.79063" lon="9.1245983"><ele>444.0</ele><time>2026-04-25T16:26:54.287Z</time></trkpt><trkpt lat="44.7906467" lon="9.1248383"><ele>445.0</ele><time>2026-04-25T16:26:55.288Z</time></trkpt><trkpt lat="44.7906633" lon="9.12508"><ele>446.0</ele><time>2026-04-25T16:26:56.288Z</time></trkpt><trkpt lat="44.79068" lon="9.1253283"><ele>447.0</ele><time>2026-04-25T16:26:57.288Z</time></trkpt><trkpt lat="44.7906867" lon="9.12558"><ele>445.0</ele><time>2026-04-25T16:26:58.288Z</time></trkpt><trkpt lat="44.7906967" lon="9.1258217"><ele>443.0</ele><time>2026-04-25T16:26:59.288Z</time></trkpt><trkpt lat="44.7906983" lon="9.1260717"><ele>441.0</ele><time>2026-04-25T16:27:00.288Z</time></trkpt><trkpt lat="44.7907017" lon="9.1263067"><ele>441.0</ele><time>2026-04-25T16:27:01.288Z</time></trkpt><trkpt lat="44.7906983" lon="9.1265517"><ele>441.0</ele><time>2026-04-25T16:27:02.288Z</time></trkpt><trkpt lat="44.7906933" lon="9.1267983"><ele>441.0</ele><time>2026-04-25T16:27:03.288Z</time></trkpt><trkpt lat="44.790675" lon="9.1270433"><ele>440.66666666666663</ele><time>2026-04-25T16:27:04.288Z</time></trkpt><trkpt lat="44.7906583" lon="9.127285"><ele>440.3333333333333</ele><time>2026-04-25T16:27:05.288Z</time></trkpt><trkpt lat="44.7906433" lon="9.1275283"><ele>440.0</ele><time>2026-04-25T16:27:06.288Z</time></trkpt><trkpt lat="44.7906317" lon="9.1277633"><ele>442.0</ele><time>2026-04-25T16:27:07.288Z</time></trkpt><trkpt lat="44.7906317" lon="9.127995"><ele>444.0</ele><time>2026-04-25T16:27:08.288Z</time></trkpt><trkpt lat="44.790645" lon="9.12822"><ele>446.0</ele><time>2026-04-25T16:27:09.288Z</time></trkpt><trkpt lat="44.790665" lon="9.128445"><ele>447.0</ele><time>2026-04-25T16:27:10.288Z</time></trkpt><trkpt lat="44.79069" lon="9.1286533"><ele>448.0</ele><time>2026-04-25T16:27:11.288Z</time></trkpt><trkpt lat="44.7907033" lon="9.1288667"><ele>449.0</ele><time>2026-04-25T16:27:12.288Z</time></trkpt><trkpt lat="44.7907133" lon="9.129075"><ele>449.0</ele><time>2026-04-25T16:27:13.288Z</time></trkpt><trkpt lat="44.790725" lon="9.1292917"><ele>449.0</ele><time>2026-04-25T16:27:14.288Z</time></trkpt><trkpt lat="44.7907383" lon="9.1295167"><ele>449.0</ele><time>2026-04-25T16:27:15.288Z</time></trkpt><trkpt lat="44.7907483" lon="9.12975"><ele>449.0</ele><time>2026-04-25T16:27:16.288Z</time></trkpt><trkpt lat="44.7907683" lon="9.1299767"><ele>449.0</ele><time>2026-04-25T16:27:17.288Z</time></trkpt><trkpt lat="44.79078" lon="9.1302017"><ele>449.0</ele><time>2026-04-25T16:27:18.288Z</time></trkpt><trkpt lat="44.7908017" lon="9.13045"><ele>449.0</ele><time>2026-04-25T16:27:19.288Z</time></trkpt><trkpt lat="44.79082" lon="9.1307117"><ele>449.0</ele><time>2026-04-25T16:27:20.288Z</time></trkpt><trkpt lat="44.7908367" lon="9.1309517"><ele>449.0</ele><time>2026-04-25T16:27:21.288Z</time></trkpt><trkpt lat="44.7908533" lon="9.1311817"><ele>449.0</ele><time>2026-04-25T16:27:22.288Z</time></trkpt><trkpt lat="44.790865" lon="9.1314017"><ele>449.0</ele><time>2026-04-25T16:27:23.288Z</time></trkpt><trkpt lat="44.7908683" lon="9.1316267"><ele>449.0</ele><time>2026-04-25T16:27:24.288Z</time></trkpt><trkpt lat="44.7908717" lon="9.1318617"><ele>449.0</ele><time>2026-04-25T16:27:25.288Z</time></trkpt><trkpt lat="44.79086" lon="9.1321083"><ele>449.0</ele><time>2026-04-25T16:27:26.288Z</time></trkpt><trkpt lat="44.79084" lon="9.132335"><ele>449.0</ele><time>2026-04-25T16:27:27.288Z</time></trkpt><trkpt lat="44.7908217" lon="9.1325717"><ele>450.3333333333333</ele><time>2026-04-25T16:27:28.288Z</time></trkpt><trkpt lat="44.7907867" lon="9.13282"><ele>451.66666666666663</ele><time>2026-04-25T16:27:29.288Z</time></trkpt><trkpt lat="44.790755" lon="9.13306"><ele>453.0</ele><time>2026-04-25T16:27:30.287Z</time></trkpt><trkpt lat="44.7907233" lon="9.1333017"><ele>453.33333333333337</ele><time>2026-04-25T16:27:31.288Z</time></trkpt><trkpt lat="44.7907017" lon="9.133545"><ele>453.6666666666667</ele><time>2026-04-25T16:27:32.288Z</time></trkpt><trkpt lat="44.79068" lon="9.1337967"><ele>454.0</ele><time>2026-04-25T16:27:33.288Z</time></trkpt><trkpt lat="44.79066" lon="9.1340417"><ele>455.6666666666667</ele><time>2026-04-25T16:27:34.288Z</time></trkpt><trkpt lat="44.7906417" lon="9.1342617"><ele>457.33333333333337</ele><time>2026-04-25T16:27:35.288Z</time></trkpt><trkpt lat="44.7906283" lon="9.1344833"><ele>459.0</ele><time>2026-04-25T16:27:36.287Z</time></trkpt><trkpt lat="44.790615" lon="9.1346983"><ele>459.0</ele><time>2026-04-25T16:27:37.288Z</time></trkpt><trkpt lat="44.7906017" lon="9.1349267"><ele>459.0</ele><time>2026-04-25T16:27:38.287Z</time></trkpt><trkpt lat="44.7905783" lon="9.13515"><ele>459.0</ele><time>2026-04-25T16:27:39.288Z</time></trkpt><trkpt lat="44.79056" lon="9.1353617"><ele>459.0</ele><time>2026-04-25T16:27:40.288Z</time></trkpt><trkpt lat="44.7905317" lon="9.135585"><ele>459.0</ele><time>2026-04-25T16:27:41.288Z</time></trkpt><trkpt lat="44.7904883" lon="9.135795"><ele>459.0</ele><time>2026-04-25T16:27:42.288Z</time></trkpt><trkpt lat="44.79044" lon="9.1359917"><ele>459.66666666666663</ele><time>2026-04-25T16:27:43.288Z</time></trkpt><trkpt lat="44.7903883" lon="9.1362"><ele>460.3333333333333</ele><time>2026-04-25T16:27:44.288Z</time></trkpt><trkpt lat="44.79033" lon="9.1364083"><ele>461.0</ele><time>2026-04-25T16:27:45.288Z</time></trkpt><trkpt lat="44.7902867" lon="9.136605"><ele>462.0</ele><time>2026-04-25T16:27:46.288Z</time></trkpt><trkpt lat="44.7902433" lon="9.1368033"><ele>463.0</ele><time>2026-04-25T16:27:47.288Z</time></trkpt><trkpt lat="44.790205" lon="9.1369967"><ele>464.0</ele><time>2026-04-25T16:27:48.288Z</time></trkpt><trkpt lat="44.7901733" lon="9.1371817"><ele>465.0</ele><time>2026-04-25T16:27:49.288Z</time></trkpt><trkpt lat="44.79012" lon="9.137365"><ele>461.25</ele><time>2026-04-25T16:27:50.288Z</time></trkpt><trkpt lat="44.7900617" lon="9.137535"><ele>457.5</ele><time>2026-04-25T16:27:51.288Z</time></trkpt><trkpt lat="44.789985" lon="9.1376983"><ele>453.75</ele><time>2026-04-25T16:27:52.288Z</time></trkpt><trkpt lat="44.7898883" lon="9.1378483"><ele>450.0</ele><time>2026-04-25T16:27:53.288Z</time></trkpt><trkpt lat="44.7897817" lon="9.137995"><ele>450.0</ele><time>2026-04-25T16:27:54.288Z</time></trkpt><trkpt lat="44.7896783" lon="9.1381417"><ele>450.0</ele><time>2026-04-25T16:27:55.288Z</time></trkpt><trkpt lat="44.7895767" lon="9.1382867"><ele>450.0</ele><time>2026-04-25T16:27:56.288Z</time></trkpt><trkpt lat="44.78947" lon="9.1384367"><ele>450.0</ele><time>2026-04-25T16:27:57.287Z</time></trkpt><trkpt lat="44.7893617" lon="9.1386017"><ele>450.33333333333337</ele><time>2026-04-25T16:27:58.288Z</time></trkpt><trkpt lat="44.7892667" lon="9.13877"><ele>450.6666666666667</ele><time>2026-04-25T16:27:59.288Z</time></trkpt><trkpt lat="44.7891633" lon="9.13894"><ele>451.0</ele><time>2026-04-25T16:28:00.288Z</time></trkpt><trkpt lat="44.7890667" lon="9.139105"><ele>452.6666666666667</ele><time>2026-04-25T16:28:01.288Z</time></trkpt><trkpt lat="44.7889733" lon="9.139275"><ele>454.33333333333337</ele><time>2026-04-25T16:28:02.288Z</time></trkpt><trkpt lat="44.7888933" lon="9.1394583"><ele>456.0</ele><time>2026-04-25T16:28:03.288Z</time></trkpt><trkpt lat="44.7888333" lon="9.13966"><ele>456.0</ele><time>2026-04-25T16:28:04.288Z</time></trkpt><trkpt lat="44.7887867" lon="9.139865"><ele>456.0</ele><time>2026-04-25T16:28:05.288Z</time></trkpt><trkpt lat="44.7887467" lon="9.1400683"><ele>456.0</ele><time>2026-04-25T16:28:06.288Z</time></trkpt><trkpt lat="44.788705" lon="9.1402883"><ele>457.66666666666663</ele><time>2026-04-25T16:28:07.288Z</time></trkpt><trkpt lat="44.788655" lon="9.1404867"><ele>459.3333333333333</ele><time>2026-04-25T16:28:08.288Z</time></trkpt><trkpt lat="44.7885917" lon="9.140685"><ele>461.0</ele><time>2026-04-25T16:28:09.288Z</time></trkpt><trkpt lat="44.78851" lon="9.1408717"><ele>460.3333333333333</ele><time>2026-04-25T16:28:10.288Z</time></trkpt><trkpt lat="44.7884267" lon="9.1410567"><ele>459.66666666666663</ele><time>2026-04-25T16:28:11.288Z</time></trkpt><trkpt lat="44.7883433" lon="9.1412367"><ele>459.0</ele><time>2026-04-25T16:28:12.288Z</time></trkpt><trkpt lat="44.7882617" lon="9.1414183"><ele>461.0</ele><time>2026-04-25T16:28:13.287Z</time></trkpt><trkpt lat="44.7881683" lon="9.1416083"><ele>463.0</ele><time>2026-04-25T16:28:14.286Z</time></trkpt><trkpt lat="44.7880833" lon="9.141795"><ele>465.0</ele><time>2026-04-25T16:28:15.287Z</time></trkpt><trkpt lat="44.7879967" lon="9.1419767"><ele>465.0</ele><time>2026-04-25T16:28:16.287Z</time></trkpt><trkpt lat="44.7879067" lon="9.14216"><ele>465.0</ele><time>2026-04-25T16:28:17.287Z</time></trkpt><trkpt lat="44.7878167" lon="9.142345"><ele>465.0</ele><time>2026-04-25T16:28:18.287Z</time></trkpt><trkpt lat="44.7877317" lon="9.1425333"><ele>464.0</ele><time>2026-04-25T16:28:19.286Z</time></trkpt><trkpt lat="44.7876433" lon="9.1427283"><ele>463.0</ele><time>2026-04-25T16:28:20.286Z</time></trkpt><trkpt lat="44.7875683" lon="9.1429417"><ele>462.0</ele><time>2026-04-25T16:28:21.287Z</time></trkpt><trkpt lat="44.7875" lon="9.1431583"><ele>463.5</ele><time>2026-04-25T16:28:22.287Z</time></trkpt><trkpt lat="44.7874417" lon="9.1433567"><ele>465.0</ele><time>2026-04-25T16:28:23.287Z</time></trkpt><trkpt lat="44.7873767" lon="9.14355"><ele>466.5</ele><time>2026-04-25T16:28:24.287Z</time></trkpt><trkpt lat="44.787315" lon="9.143735"><ele>468.0</ele><time>2026-04-25T16:28:25.286Z</time></trkpt><trkpt lat="44.78725" lon="9.14391"><ele>469.75</ele><time>2026-04-25T16:28:26.287Z</time></trkpt><trkpt lat="44.7871833" lon="9.1440917"><ele>471.5</ele><time>2026-04-25T16:28:27.287Z</time></trkpt><trkpt lat="44.7871167" lon="9.1442767"><ele>473.25</ele><time>2026-04-25T16:28:28.287Z</time></trkpt><trkpt lat="44.787045" lon="9.1444683"><ele>475.0</ele><time>2026-04-25T16:28:29.286Z</time></trkpt><trkpt lat="44.78697" lon="9.1446683"><ele>475.0</ele><time>2026-04-25T16:28:30.287Z</time></trkpt><trkpt lat="44.7869083" lon="9.14487"><ele>475.0</ele><time>2026-04-25T16:28:31.287Z</time></trkpt><trkpt lat="44.7868467" lon="9.1450633"><ele>475.0</ele><time>2026-04-25T16:28:32.287Z</time></trkpt><trkpt lat="44.786785" lon="9.14525"><ele>474.25</ele><time>2026-04-25T16:28:33.287Z</time></trkpt><trkpt lat="44.7867233" lon="9.1453983"><ele>473.5</ele><time>2026-04-25T16:28:34.287Z</time></trkpt><trkpt lat="44.7866517" lon="9.145525"><ele>472.75</ele><time>2026-04-25T16:28:35.287Z</time></trkpt><trkpt lat="44.78656" lon="9.1456383"><ele>472.0</ele><time>2026-04-25T16:28:36.286Z</time></trkpt><trkpt lat="44.7864583" lon="9.1457267"><ele>472.0</ele><time>2026-04-25T16:28:37.287Z</time></trkpt><trkpt lat="44.786355" lon="9.14581"><ele>472.00000000000006</ele><time>2026-04-25T16:28:38.287Z</time></trkpt><trkpt lat="44.78627" lon="9.1459"><ele>472.00000000000006</ele><time>2026-04-25T16:28:39.287Z</time></trkpt><trkpt lat="44.7861867" lon="9.1459983"><ele>472.0</ele><time>2026-04-25T16:28:40.287Z</time></trkpt><trkpt lat="44.7861117" lon="9.1461017"><ele>472.0</ele><time>2026-04-25T16:28:41.287Z</time></trkpt><trkpt lat="44.78606" lon="9.1462183"><ele>472.0</ele><time>2026-04-25T16:28:42.287Z</time></trkpt><trkpt lat="44.7860217" lon="9.1463533"><ele>472.00000000000006</ele><time>2026-04-25T16:28:43.287Z</time></trkpt><trkpt lat="44.785985" lon="9.1464933"><ele>472.00000000000006</ele><time>2026-04-25T16:28:44.287Z</time></trkpt><trkpt lat="44.7859517" lon="9.14662"><ele>472.0</ele><time>2026-04-25T16:28:45.287Z</time></trkpt><trkpt lat="44.7858983" lon="9.14674"><ele>472.0</ele><time>2026-04-25T16:28:46.287Z</time></trkpt><trkpt lat="44.7858283" lon="9.1468333"><ele>471.75</ele><time>2026-04-25T16:28:47.287Z</time></trkpt><trkpt lat="44.78575" lon="9.14692"><ele>471.5</ele><time>2026-04-25T16:28:48.287Z</time></trkpt><trkpt lat="44.7856483" lon="9.146995"><ele>471.25</ele><time>2026-04-25T16:28:49.286Z</time></trkpt><trkpt lat="44.7855467" lon="9.14707"><ele>471.0</ele><time>2026-04-25T16:28:50.287Z</time></trkpt><trkpt lat="44.7854317" lon="9.1471417"><ele>471.0</ele><time>2026-04-25T16:28:51.287Z</time></trkpt><trkpt lat="44.7853017" lon="9.1472183"><ele>471.0</ele><time>2026-04-25T16:28:52.286Z</time></trkpt><trkpt lat="44.785165" lon="9.1472983"><ele>471.0</ele><time>2026-04-25T16:28:53.286Z</time></trkpt><trkpt lat="44.785035" lon="9.1473633"><ele>471.0</ele><time>2026-04-25T16:28:54.287Z</time></trkpt><trkpt lat="44.7849133" lon="9.1474217"><ele>471.0</ele><time>2026-04-25T16:28:55.287Z</time></trkpt><trkpt lat="44.7848033" lon="9.1474867"><ele>471.0</ele><time>2026-04-25T16:28:56.287Z</time></trkpt><trkpt lat="44.7847017" lon="9.1475917"><ele>471.0</ele><time>2026-04-25T16:28:57.287Z</time></trkpt><trkpt lat="44.78461" lon="9.1477067"><ele>471.0</ele><time>2026-04-25T16:28:58.287Z</time></trkpt><trkpt lat="44.7845267" lon="9.14782"><ele>471.0</ele><time>2026-04-25T16:28:59.287Z</time></trkpt><trkpt lat="44.78444" lon="9.1478917"><ele>471.0</ele><time>2026-04-25T16:29:00.287Z</time></trkpt><trkpt lat="44.7843567" lon="9.1479417"><ele>471.0</ele><time>2026-04-25T16:29:01.287Z</time></trkpt><trkpt lat="44.784285" lon="9.147975"><ele>470.0</ele><time>2026-04-25T16:29:02.287Z</time></trkpt><trkpt lat="44.7841867" lon="9.1479933"><ele>470.0</ele><time>2026-04-25T16:29:04.287Z</time></trkpt></trkseg></trk></gpx>